<?xml version="1.0" encoding="UTF-8" standalone="no" ?>
<gpx xmlns="http://www.topografix.com/GPX/1/1" xmlns:xsi="http://www.w3.org/2001/XMLSchema-instance" xsi:schemaLocation="http://www.topografix.com/GPX/1/1 http://www.topografix.com/GPX/1/1/gpx.xsd" version="1.1" creator="VisuGPX - https://www.visugpx.com">
  <metadata>
    <name>Saint Didier sous Riverie </name>
    <desc><![CDATA[Ballade tranquille autour de Saint Didier. Une randonnée de village 2017.]]></desc>
  </metadata>
  <trk>
    <name><![CDATA[St Didier sous Riverie]]></name>
    <trkseg>
      <trkpt lat="45.60137" lon="4.60475">
        <ele>637.22</ele>
        <time>2017-04-30T05:50:53Z</time>
      </trkpt>
      <trkpt lat="45.60137" lon="4.60475">
        <ele>414.68</ele>
        <time>2017-04-30T05:50:54Z</time>
      </trkpt>
      <trkpt lat="45.60132" lon="4.60476">
        <ele>414.68</ele>
        <time>2017-04-30T05:50:55Z</time>
      </trkpt>
      <trkpt lat="45.60129" lon="4.60472">
        <ele>414.79</ele>
        <time>2017-04-30T05:51:00Z</time>
      </trkpt>
      <trkpt lat="45.60129" lon="4.60465">
        <ele>415.39</ele>
        <time>2017-04-30T05:51:09Z</time>
      </trkpt>
      <trkpt lat="45.6013" lon="4.60454">
        <ele>416.2</ele>
        <time>2017-04-30T05:51:17Z</time>
      </trkpt>
      <trkpt lat="45.60135" lon="4.6043">
        <ele>418.56</ele>
        <time>2017-04-30T05:51:34Z</time>
      </trkpt>
      <trkpt lat="45.60128" lon="4.60417">
        <ele>421.28</ele>
        <time>2017-04-30T05:51:52Z</time>
      </trkpt>
      <trkpt lat="45.60123" lon="4.60402">
        <ele>422.66</ele>
        <time>2017-04-30T05:52:12Z</time>
      </trkpt>
      <trkpt lat="45.60124" lon="4.60396">
        <ele>423.43</ele>
        <time>2017-04-30T05:52:16Z</time>
      </trkpt>
      <trkpt lat="45.60104" lon="4.6038">
        <ele>425.71</ele>
        <time>2017-04-30T05:52:32Z</time>
      </trkpt>
      <trkpt lat="45.60083" lon="4.60353">
        <ele>428.68</ele>
        <time>2017-04-30T05:52:50Z</time>
      </trkpt>
      <trkpt lat="45.60088" lon="4.60324">
        <ele>431.84</ele>
        <time>2017-04-30T05:53:06Z</time>
      </trkpt>
      <trkpt lat="45.60095" lon="4.60298">
        <ele>433.05</ele>
        <time>2017-04-30T05:53:21Z</time>
      </trkpt>
      <trkpt lat="45.601" lon="4.60264">
        <ele>434.93</ele>
        <time>2017-04-30T05:53:41Z</time>
      </trkpt>
      <trkpt lat="45.60106" lon="4.60226">
        <ele>437.99</ele>
        <time>2017-04-30T05:54:05Z</time>
      </trkpt>
      <trkpt lat="45.60106" lon="4.60225">
        <ele>438.17</ele>
        <time>2017-04-30T05:54:06Z</time>
      </trkpt>
      <trkpt lat="45.60106" lon="4.60219">
        <ele>438.85</ele>
        <time>2017-04-30T05:54:10Z</time>
      </trkpt>
      <trkpt lat="45.60106" lon="4.60191">
        <ele>440.74</ele>
        <time>2017-04-30T05:54:26Z</time>
      </trkpt>
      <trkpt lat="45.6011" lon="4.60167">
        <ele>442.38</ele>
        <time>2017-04-30T05:54:43Z</time>
      </trkpt>
      <trkpt lat="45.60113" lon="4.60143">
        <ele>444.06</ele>
        <time>2017-04-30T05:54:59Z</time>
      </trkpt>
      <trkpt lat="45.60115" lon="4.60104">
        <ele>445.67</ele>
        <time>2017-04-30T05:55:20Z</time>
      </trkpt>
      <trkpt lat="45.60117" lon="4.60073">
        <ele>447.69</ele>
        <time>2017-04-30T05:55:38Z</time>
      </trkpt>
      <trkpt lat="45.60117" lon="4.60059">
        <ele>449.01</ele>
        <time>2017-04-30T05:55:46Z</time>
      </trkpt>
      <trkpt lat="45.6012" lon="4.60029">
        <ele>450.52</ele>
        <time>2017-04-30T05:56:04Z</time>
      </trkpt>
      <trkpt lat="45.60121" lon="4.60026">
        <ele>450.75</ele>
        <time>2017-04-30T05:56:06Z</time>
      </trkpt>
      <trkpt lat="45.60122" lon="4.60012">
        <ele>451.95</ele>
        <time>2017-04-30T05:56:14Z</time>
      </trkpt>
      <trkpt lat="45.60126" lon="4.60001">
        <ele>453.28</ele>
        <time>2017-04-30T05:56:22Z</time>
      </trkpt>
      <trkpt lat="45.6013" lon="4.59967">
        <ele>456.34</ele>
        <time>2017-04-30T05:56:43Z</time>
      </trkpt>
      <trkpt lat="45.60132" lon="4.59938">
        <ele>458.87</ele>
        <time>2017-04-30T05:57:01Z</time>
      </trkpt>
      <trkpt lat="45.60133" lon="4.59915">
        <ele>461.9</ele>
        <time>2017-04-30T05:57:15Z</time>
      </trkpt>
      <trkpt lat="45.60131" lon="4.59888">
        <ele>463.12</ele>
        <time>2017-04-30T05:57:33Z</time>
      </trkpt>
      <trkpt lat="45.60127" lon="4.59872">
        <ele>463.83</ele>
        <time>2017-04-30T05:57:45Z</time>
      </trkpt>
      <trkpt lat="45.60115" lon="4.59845">
        <ele>465.24</ele>
        <time>2017-04-30T05:58:07Z</time>
      </trkpt>
      <trkpt lat="45.60113" lon="4.59842">
        <ele>465.41</ele>
        <time>2017-04-30T05:58:10Z</time>
      </trkpt>
      <trkpt lat="45.601" lon="4.59828">
        <ele>467.9</ele>
        <time>2017-04-30T05:58:26Z</time>
      </trkpt>
      <trkpt lat="45.60091" lon="4.59799">
        <ele>470.46</ele>
        <time>2017-04-30T05:58:48Z</time>
      </trkpt>
      <trkpt lat="45.60085" lon="4.59776">
        <ele>473.09</ele>
        <time>2017-04-30T05:59:05Z</time>
      </trkpt>
      <trkpt lat="45.6008" lon="4.5976">
        <ele>474.97</ele>
        <time>2017-04-30T05:59:18Z</time>
      </trkpt>
      <trkpt lat="45.60072" lon="4.59746">
        <ele>478.03</ele>
        <time>2017-04-30T05:59:32Z</time>
      </trkpt>
      <trkpt lat="45.60067" lon="4.59729">
        <ele>479.56</ele>
        <time>2017-04-30T05:59:46Z</time>
      </trkpt>
      <trkpt lat="45.60062" lon="4.5971">
        <ele>481.26</ele>
        <time>2017-04-30T06:00:04Z</time>
      </trkpt>
      <trkpt lat="45.6006" lon="4.5969">
        <ele>484.21</ele>
        <time>2017-04-30T06:00:21Z</time>
      </trkpt>
      <trkpt lat="45.60056" lon="4.59668">
        <ele>486.58</ele>
        <time>2017-04-30T06:00:40Z</time>
      </trkpt>
      <trkpt lat="45.60059" lon="4.59646">
        <ele>489.63</ele>
        <time>2017-04-30T06:01:00Z</time>
      </trkpt>
      <trkpt lat="45.60066" lon="4.59629">
        <ele>492.7</ele>
        <time>2017-04-30T06:01:18Z</time>
      </trkpt>
      <trkpt lat="45.60067" lon="4.59625">
        <ele>493.37</ele>
        <time>2017-04-30T06:01:21Z</time>
      </trkpt>
      <trkpt lat="45.60067" lon="4.59601">
        <ele>496.24</ele>
        <time>2017-04-30T06:01:41Z</time>
      </trkpt>
      <trkpt lat="45.60066" lon="4.5958">
        <ele>499.28</ele>
        <time>2017-04-30T06:01:59Z</time>
      </trkpt>
      <trkpt lat="45.60067" lon="4.59557">
        <ele>501.47</ele>
        <time>2017-04-30T06:02:18Z</time>
      </trkpt>
      <trkpt lat="45.60074" lon="4.59535">
        <ele>504.54</ele>
        <time>2017-04-30T06:02:39Z</time>
      </trkpt>
      <trkpt lat="45.60078" lon="4.59512">
        <ele>507.66</ele>
        <time>2017-04-30T06:02:56Z</time>
      </trkpt>
      <trkpt lat="45.60079" lon="4.59501">
        <ele>510.79</ele>
        <time>2017-04-30T06:03:05Z</time>
      </trkpt>
      <trkpt lat="45.60079" lon="4.59479">
        <ele>511.05</ele>
        <time>2017-04-30T06:03:22Z</time>
      </trkpt>
      <trkpt lat="45.60083" lon="4.59462">
        <ele>512.97</ele>
        <time>2017-04-30T06:03:38Z</time>
      </trkpt>
      <trkpt lat="45.60086" lon="4.59447">
        <ele>516.06</ele>
        <time>2017-04-30T06:03:51Z</time>
      </trkpt>
      <trkpt lat="45.60086" lon="4.59428">
        <ele>518.18</ele>
        <time>2017-04-30T06:04:07Z</time>
      </trkpt>
      <trkpt lat="45.60086" lon="4.59405">
        <ele>521.38</ele>
        <time>2017-04-30T06:04:27Z</time>
      </trkpt>
      <trkpt lat="45.60084" lon="4.5938">
        <ele>524.5</ele>
        <time>2017-04-30T06:04:47Z</time>
      </trkpt>
      <trkpt lat="45.60086" lon="4.59361">
        <ele>527.52</ele>
        <time>2017-04-30T06:05:03Z</time>
      </trkpt>
      <trkpt lat="45.60084" lon="4.59339">
        <ele>530.55</ele>
        <time>2017-04-30T06:05:20Z</time>
      </trkpt>
      <trkpt lat="45.60085" lon="4.59315">
        <ele>533.56</ele>
        <time>2017-04-30T06:05:38Z</time>
      </trkpt>
      <trkpt lat="45.60087" lon="4.593">
        <ele>534.91</ele>
        <time>2017-04-30T06:05:49Z</time>
      </trkpt>
      <trkpt lat="45.60093" lon="4.5928">
        <ele>537.94</ele>
        <time>2017-04-30T06:06:06Z</time>
      </trkpt>
      <trkpt lat="45.60097" lon="4.59255">
        <ele>541.02</ele>
        <time>2017-04-30T06:06:26Z</time>
      </trkpt>
      <trkpt lat="45.60102" lon="4.59227">
        <ele>543.29</ele>
        <time>2017-04-30T06:06:46Z</time>
      </trkpt>
      <trkpt lat="45.60103" lon="4.59204">
        <ele>546.3</ele>
        <time>2017-04-30T06:06:57Z</time>
      </trkpt>
      <trkpt lat="45.60103" lon="4.59181">
        <ele>548.25</ele>
        <time>2017-04-30T06:07:13Z</time>
      </trkpt>
      <trkpt lat="45.60105" lon="4.59163">
        <ele>551.39</ele>
        <time>2017-04-30T06:07:28Z</time>
      </trkpt>
      <trkpt lat="45.60107" lon="4.59147">
        <ele>554.49</ele>
        <time>2017-04-30T06:07:42Z</time>
      </trkpt>
      <trkpt lat="45.60111" lon="4.59124">
        <ele>557.43</ele>
        <time>2017-04-30T06:08:03Z</time>
      </trkpt>
      <trkpt lat="45.60113" lon="4.59105">
        <ele>559.86</ele>
        <time>2017-04-30T06:08:24Z</time>
      </trkpt>
      <trkpt lat="45.60115" lon="4.59098">
        <ele>561.16</ele>
        <time>2017-04-30T06:08:32Z</time>
      </trkpt>
      <trkpt lat="45.60117" lon="4.5908">
        <ele>562.92</ele>
        <time>2017-04-30T06:08:51Z</time>
      </trkpt>
      <trkpt lat="45.60121" lon="4.59064">
        <ele>566.04</ele>
        <time>2017-04-30T06:09:05Z</time>
      </trkpt>
      <trkpt lat="45.60121" lon="4.59045">
        <ele>569.38</ele>
        <time>2017-04-30T06:09:24Z</time>
      </trkpt>
      <trkpt lat="45.60121" lon="4.59033">
        <ele>572.49</ele>
        <time>2017-04-30T06:09:39Z</time>
      </trkpt>
      <trkpt lat="45.60124" lon="4.59018">
        <ele>575.55</ele>
        <time>2017-04-30T06:09:56Z</time>
      </trkpt>
      <trkpt lat="45.60124" lon="4.59002">
        <ele>578.4</ele>
        <time>2017-04-30T06:10:13Z</time>
      </trkpt>
      <trkpt lat="45.60125" lon="4.58987">
        <ele>581.48</ele>
        <time>2017-04-30T06:10:33Z</time>
      </trkpt>
      <trkpt lat="45.60124" lon="4.58971">
        <ele>584.63</ele>
        <time>2017-04-30T06:10:51Z</time>
      </trkpt>
      <trkpt lat="45.60134" lon="4.58941">
        <ele>587.7</ele>
        <time>2017-04-30T06:11:18Z</time>
      </trkpt>
      <trkpt lat="45.60134" lon="4.58931">
        <ele>588.88</ele>
        <time>2017-04-30T06:11:24Z</time>
      </trkpt>
      <trkpt lat="45.60136" lon="4.58928">
        <ele>589.62</ele>
        <time>2017-04-30T06:11:27Z</time>
      </trkpt>
      <trkpt lat="45.60136" lon="4.58915">
        <ele>590.67</ele>
        <time>2017-04-30T06:11:36Z</time>
      </trkpt>
      <trkpt lat="45.60141" lon="4.58886">
        <ele>591.48</ele>
        <time>2017-04-30T06:11:55Z</time>
      </trkpt>
      <trkpt lat="45.60146" lon="4.58865">
        <ele>590.32</ele>
        <time>2017-04-30T06:12:10Z</time>
      </trkpt>
      <trkpt lat="45.60151" lon="4.58842">
        <ele>589.19</ele>
        <time>2017-04-30T06:12:24Z</time>
      </trkpt>
      <trkpt lat="45.60153" lon="4.58833">
        <ele>588.99</ele>
        <time>2017-04-30T06:12:30Z</time>
      </trkpt>
      <trkpt lat="45.60155" lon="4.58821">
        <ele>588.87</ele>
        <time>2017-04-30T06:12:38Z</time>
      </trkpt>
      <trkpt lat="45.60155" lon="4.58812">
        <ele>588.4</ele>
        <time>2017-04-30T06:12:43Z</time>
      </trkpt>
      <trkpt lat="45.60157" lon="4.588">
        <ele>587.08</ele>
        <time>2017-04-30T06:12:51Z</time>
      </trkpt>
      <trkpt lat="45.60167" lon="4.58781">
        <ele>586.02</ele>
        <time>2017-04-30T06:13:06Z</time>
      </trkpt>
      <trkpt lat="45.60168" lon="4.58778">
        <ele>585.84</ele>
        <time>2017-04-30T06:13:08Z</time>
      </trkpt>
      <trkpt lat="45.60173" lon="4.58749">
        <ele>584.87</ele>
        <time>2017-04-30T06:13:23Z</time>
      </trkpt>
      <trkpt lat="45.60174" lon="4.58744">
        <ele>584.7</ele>
        <time>2017-04-30T06:13:26Z</time>
      </trkpt>
      <trkpt lat="45.60175" lon="4.58738">
        <ele>584.65</ele>
        <time>2017-04-30T06:13:30Z</time>
      </trkpt>
      <trkpt lat="45.60181" lon="4.58713">
        <ele>583.06</ele>
        <time>2017-04-30T06:13:45Z</time>
      </trkpt>
      <trkpt lat="45.60184" lon="4.58694">
        <ele>581.7</ele>
        <time>2017-04-30T06:13:56Z</time>
      </trkpt>
      <trkpt lat="45.60182" lon="4.58661">
        <ele>580.58</ele>
        <time>2017-04-30T06:14:14Z</time>
      </trkpt>
      <trkpt lat="45.60185" lon="4.58636">
        <ele>581.74</ele>
        <time>2017-04-30T06:14:30Z</time>
      </trkpt>
      <trkpt lat="45.60182" lon="4.58608">
        <ele>582.86</ele>
        <time>2017-04-30T06:14:48Z</time>
      </trkpt>
      <trkpt lat="45.60181" lon="4.58579">
        <ele>584.23</ele>
        <time>2017-04-30T06:15:06Z</time>
      </trkpt>
      <trkpt lat="45.60174" lon="4.58545">
        <ele>585.67</ele>
        <time>2017-04-30T06:15:28Z</time>
      </trkpt>
      <trkpt lat="45.60166" lon="4.58533">
        <ele>587.18</ele>
        <time>2017-04-30T06:15:40Z</time>
      </trkpt>
      <trkpt lat="45.60162" lon="4.58529">
        <ele>587.94</ele>
        <time>2017-04-30T06:15:45Z</time>
      </trkpt>
      <trkpt lat="45.60156" lon="4.5851">
        <ele>590.43</ele>
        <time>2017-04-30T06:15:59Z</time>
      </trkpt>
      <trkpt lat="45.6015" lon="4.58487">
        <ele>592.69</ele>
        <time>2017-04-30T06:16:15Z</time>
      </trkpt>
      <trkpt lat="45.60146" lon="4.58467">
        <ele>595.31</ele>
        <time>2017-04-30T06:16:29Z</time>
      </trkpt>
      <trkpt lat="45.60146" lon="4.58462">
        <ele>595.5</ele>
        <time>2017-04-30T06:16:32Z</time>
      </trkpt>
      <trkpt lat="45.60138" lon="4.58433">
        <ele>594.16</ele>
        <time>2017-04-30T06:16:51Z</time>
      </trkpt>
      <trkpt lat="45.60131" lon="4.58403">
        <ele>593.16</ele>
        <time>2017-04-30T06:17:08Z</time>
      </trkpt>
      <trkpt lat="45.60122" lon="4.58369">
        <ele>592.84</ele>
        <time>2017-04-30T06:17:29Z</time>
      </trkpt>
      <trkpt lat="45.60117" lon="4.58338">
        <ele>595.52</ele>
        <time>2017-04-30T06:17:48Z</time>
      </trkpt>
      <trkpt lat="45.60118" lon="4.58308">
        <ele>598.42</ele>
        <time>2017-04-30T06:18:07Z</time>
      </trkpt>
      <trkpt lat="45.6012" lon="4.58303">
        <ele>598.66</ele>
        <time>2017-04-30T06:18:11Z</time>
      </trkpt>
      <trkpt lat="45.60121" lon="4.58297">
        <ele>598.89</ele>
        <time>2017-04-30T06:18:15Z</time>
      </trkpt>
      <trkpt lat="45.60124" lon="4.58276">
        <ele>600.26</ele>
        <time>2017-04-30T06:18:30Z</time>
      </trkpt>
      <trkpt lat="45.60128" lon="4.58259">
        <ele>603.3</ele>
        <time>2017-04-30T06:18:44Z</time>
      </trkpt>
      <trkpt lat="45.60133" lon="4.58239">
        <ele>605.72</ele>
        <time>2017-04-30T06:19:01Z</time>
      </trkpt>
      <trkpt lat="45.60138" lon="4.58215">
        <ele>607.38</ele>
        <time>2017-04-30T06:19:17Z</time>
      </trkpt>
      <trkpt lat="45.60141" lon="4.5819">
        <ele>610.44</ele>
        <time>2017-04-30T06:19:35Z</time>
      </trkpt>
      <trkpt lat="45.60145" lon="4.58168">
        <ele>613.24</ele>
        <time>2017-04-30T06:19:52Z</time>
      </trkpt>
      <trkpt lat="45.60147" lon="4.58148">
        <ele>614.88</ele>
        <time>2017-04-30T06:20:05Z</time>
      </trkpt>
      <trkpt lat="45.60147" lon="4.58144">
        <ele>615.08</ele>
        <time>2017-04-30T06:20:08Z</time>
      </trkpt>
      <trkpt lat="45.60151" lon="4.58118">
        <ele>617.01</ele>
        <time>2017-04-30T06:20:27Z</time>
      </trkpt>
      <trkpt lat="45.60154" lon="4.58088">
        <ele>618.97</ele>
        <time>2017-04-30T06:20:48Z</time>
      </trkpt>
      <trkpt lat="45.60155" lon="4.58082">
        <ele>619.27</ele>
        <time>2017-04-30T06:20:52Z</time>
      </trkpt>
      <trkpt lat="45.60159" lon="4.58056">
        <ele>621.07</ele>
        <time>2017-04-30T06:21:11Z</time>
      </trkpt>
      <trkpt lat="45.60162" lon="4.58039">
        <ele>624.13</ele>
        <time>2017-04-30T06:21:25Z</time>
      </trkpt>
      <trkpt lat="45.60167" lon="4.58015">
        <ele>627.15</ele>
        <time>2017-04-30T06:21:45Z</time>
      </trkpt>
      <trkpt lat="45.60177" lon="4.57995">
        <ele>630.23</ele>
        <time>2017-04-30T06:22:05Z</time>
      </trkpt>
      <trkpt lat="45.60193" lon="4.57989">
        <ele>632.66</ele>
        <time>2017-04-30T06:22:22Z</time>
      </trkpt>
      <trkpt lat="45.60194" lon="4.57988">
        <ele>632.83</ele>
        <time>2017-04-30T06:22:24Z</time>
      </trkpt>
      <trkpt lat="45.60209" lon="4.57974">
        <ele>631.92</ele>
        <time>2017-04-30T06:22:40Z</time>
      </trkpt>
      <trkpt lat="45.60222" lon="4.57951">
        <ele>632.2</ele>
        <time>2017-04-30T06:22:58Z</time>
      </trkpt>
      <trkpt lat="45.6023" lon="4.57922">
        <ele>632.77</ele>
        <time>2017-04-30T06:23:17Z</time>
      </trkpt>
      <trkpt lat="45.60234" lon="4.579">
        <ele>633.01</ele>
        <time>2017-04-30T06:23:31Z</time>
      </trkpt>
      <trkpt lat="45.6024" lon="4.5787">
        <ele>634.83</ele>
        <time>2017-04-30T06:23:51Z</time>
      </trkpt>
      <trkpt lat="45.60241" lon="4.57864">
        <ele>635.18</ele>
        <time>2017-04-30T06:23:55Z</time>
      </trkpt>
      <trkpt lat="45.60243" lon="4.57834">
        <ele>636.18</ele>
        <time>2017-04-30T06:24:14Z</time>
      </trkpt>
      <trkpt lat="45.6024" lon="4.57801">
        <ele>637.98</ele>
        <time>2017-04-30T06:24:35Z</time>
      </trkpt>
      <trkpt lat="45.60244" lon="4.5779">
        <ele>640.53</ele>
        <time>2017-04-30T06:24:51Z</time>
      </trkpt>
      <trkpt lat="45.60253" lon="4.57818">
        <ele>641.41</ele>
        <time>2017-04-30T06:25:11Z</time>
      </trkpt>
      <trkpt lat="45.60263" lon="4.57841">
        <ele>642.38</ele>
        <time>2017-04-30T06:25:28Z</time>
      </trkpt>
      <trkpt lat="45.60269" lon="4.57858">
        <ele>642.19</ele>
        <time>2017-04-30T06:25:39Z</time>
      </trkpt>
      <trkpt lat="45.6028" lon="4.57882">
        <ele>641.14</ele>
        <time>2017-04-30T06:25:57Z</time>
      </trkpt>
      <trkpt lat="45.6029" lon="4.57909">
        <ele>641.29</ele>
        <time>2017-04-30T06:26:16Z</time>
      </trkpt>
      <trkpt lat="45.603" lon="4.57936">
        <ele>644.16</ele>
        <time>2017-04-30T06:26:36Z</time>
      </trkpt>
      <trkpt lat="45.60307" lon="4.57962">
        <ele>645.1</ele>
        <time>2017-04-30T06:26:53Z</time>
      </trkpt>
      <trkpt lat="45.60312" lon="4.57994">
        <ele>645.6</ele>
        <time>2017-04-30T06:27:14Z</time>
      </trkpt>
      <trkpt lat="45.60319" lon="4.58022">
        <ele>647.51</ele>
        <time>2017-04-30T06:27:32Z</time>
      </trkpt>
      <trkpt lat="45.60323" lon="4.58036">
        <ele>648.05</ele>
        <time>2017-04-30T06:27:43Z</time>
      </trkpt>
      <trkpt lat="45.60333" lon="4.58064">
        <ele>649.37</ele>
        <time>2017-04-30T06:28:03Z</time>
      </trkpt>
      <trkpt lat="45.6034" lon="4.58085">
        <ele>650.57</ele>
        <time>2017-04-30T06:28:17Z</time>
      </trkpt>
      <trkpt lat="45.60344" lon="4.58096">
        <ele>650.47</ele>
        <time>2017-04-30T06:28:24Z</time>
      </trkpt>
      <trkpt lat="45.60354" lon="4.58128">
        <ele>651.79</ele>
        <time>2017-04-30T06:28:45Z</time>
      </trkpt>
      <trkpt lat="45.6036" lon="4.58156">
        <ele>653.18</ele>
        <time>2017-04-30T06:29:03Z</time>
      </trkpt>
      <trkpt lat="45.60368" lon="4.58192">
        <ele>653.38</ele>
        <time>2017-04-30T06:29:25Z</time>
      </trkpt>
      <trkpt lat="45.60376" lon="4.58226">
        <ele>652.4</ele>
        <time>2017-04-30T06:29:46Z</time>
      </trkpt>
      <trkpt lat="45.60379" lon="4.5824">
        <ele>651.98</ele>
        <time>2017-04-30T06:29:55Z</time>
      </trkpt>
      <trkpt lat="45.60381" lon="4.58247">
        <ele>652.11</ele>
        <time>2017-04-30T06:29:59Z</time>
      </trkpt>
      <trkpt lat="45.60387" lon="4.58276">
        <ele>652.67</ele>
        <time>2017-04-30T06:30:17Z</time>
      </trkpt>
      <trkpt lat="45.60399" lon="4.58303">
        <ele>652.98</ele>
        <time>2017-04-30T06:30:35Z</time>
      </trkpt>
      <trkpt lat="45.60412" lon="4.58326">
        <ele>653.3</ele>
        <time>2017-04-30T06:30:53Z</time>
      </trkpt>
      <trkpt lat="45.60413" lon="4.58328">
        <ele>653.38</ele>
        <time>2017-04-30T06:30:54Z</time>
      </trkpt>
      <trkpt lat="45.60421" lon="4.58357">
        <ele>655.04</ele>
        <time>2017-04-30T06:31:13Z</time>
      </trkpt>
      <trkpt lat="45.60422" lon="4.5836">
        <ele>655</ele>
        <time>2017-04-30T06:31:15Z</time>
      </trkpt>
      <trkpt lat="45.60429" lon="4.58379">
        <ele>655.8</ele>
        <time>2017-04-30T06:31:28Z</time>
      </trkpt>
      <trkpt lat="45.60442" lon="4.58408">
        <ele>655.93</ele>
        <time>2017-04-30T06:31:49Z</time>
      </trkpt>
      <trkpt lat="45.60456" lon="4.58434">
        <ele>655.6</ele>
        <time>2017-04-30T06:32:09Z</time>
      </trkpt>
      <trkpt lat="45.60467" lon="4.58457">
        <ele>656.27</ele>
        <time>2017-04-30T06:32:27Z</time>
      </trkpt>
      <trkpt lat="45.60471" lon="4.58466">
        <ele>656.88</ele>
        <time>2017-04-30T06:32:33Z</time>
      </trkpt>
      <trkpt lat="45.60471" lon="4.58469">
        <ele>657.02</ele>
        <time>2017-04-30T06:32:35Z</time>
      </trkpt>
      <trkpt lat="45.60475" lon="4.5848">
        <ele>657.34</ele>
        <time>2017-04-30T06:32:42Z</time>
      </trkpt>
      <trkpt lat="45.60483" lon="4.58509">
        <ele>658.25</ele>
        <time>2017-04-30T06:33:01Z</time>
      </trkpt>
      <trkpt lat="45.60491" lon="4.58536">
        <ele>659.56</ele>
        <time>2017-04-30T06:33:18Z</time>
      </trkpt>
      <trkpt lat="45.605" lon="4.58567">
        <ele>658.98</ele>
        <time>2017-04-30T06:33:38Z</time>
      </trkpt>
      <trkpt lat="45.60511" lon="4.58599">
        <ele>660.02</ele>
        <time>2017-04-30T06:33:58Z</time>
      </trkpt>
      <trkpt lat="45.6052" lon="4.58628">
        <ele>661.49</ele>
        <time>2017-04-30T06:34:16Z</time>
      </trkpt>
      <trkpt lat="45.6053" lon="4.58656">
        <ele>662.93</ele>
        <time>2017-04-30T06:34:35Z</time>
      </trkpt>
      <trkpt lat="45.60547" lon="4.5868">
        <ele>664.21</ele>
        <time>2017-04-30T06:34:55Z</time>
      </trkpt>
      <trkpt lat="45.60571" lon="4.58699">
        <ele>665.25</ele>
        <time>2017-04-30T06:35:17Z</time>
      </trkpt>
      <trkpt lat="45.60593" lon="4.58718">
        <ele>665.71</ele>
        <time>2017-04-30T06:35:39Z</time>
      </trkpt>
      <trkpt lat="45.60614" lon="4.58741">
        <ele>666.54</ele>
        <time>2017-04-30T06:36:02Z</time>
      </trkpt>
      <trkpt lat="45.60627" lon="4.58751">
        <ele>667.61</ele>
        <time>2017-04-30T06:36:17Z</time>
      </trkpt>
      <trkpt lat="45.6063" lon="4.58755">
        <ele>668.01</ele>
        <time>2017-04-30T06:36:21Z</time>
      </trkpt>
      <trkpt lat="45.60652" lon="4.58784">
        <ele>667.83</ele>
        <time>2017-04-30T06:36:46Z</time>
      </trkpt>
      <trkpt lat="45.60661" lon="4.58808">
        <ele>666.62</ele>
        <time>2017-04-30T06:37:03Z</time>
      </trkpt>
      <trkpt lat="45.60675" lon="4.58843">
        <ele>663.56</ele>
        <time>2017-04-30T06:37:26Z</time>
      </trkpt>
      <trkpt lat="45.60688" lon="4.58877">
        <ele>661.29</ele>
        <time>2017-04-30T06:37:49Z</time>
      </trkpt>
      <trkpt lat="45.60706" lon="4.58907">
        <ele>658.88</ele>
        <time>2017-04-30T06:38:12Z</time>
      </trkpt>
      <trkpt lat="45.60728" lon="4.58931">
        <ele>656.92</ele>
        <time>2017-04-30T06:38:36Z</time>
      </trkpt>
      <trkpt lat="45.6075" lon="4.58953">
        <ele>654.42</ele>
        <time>2017-04-30T06:38:58Z</time>
      </trkpt>
      <trkpt lat="45.60773" lon="4.58974">
        <ele>652.35</ele>
        <time>2017-04-30T06:39:21Z</time>
      </trkpt>
      <trkpt lat="45.60789" lon="4.58985">
        <ele>650.66</ele>
        <time>2017-04-30T06:39:36Z</time>
      </trkpt>
      <trkpt lat="45.60809" lon="4.58988">
        <ele>651.57</ele>
        <time>2017-04-30T06:39:54Z</time>
      </trkpt>
      <trkpt lat="45.60829" lon="4.58998">
        <ele>653.54</ele>
        <time>2017-04-30T06:40:12Z</time>
      </trkpt>
      <trkpt lat="45.60847" lon="4.59017">
        <ele>654.92</ele>
        <time>2017-04-30T06:40:31Z</time>
      </trkpt>
      <trkpt lat="45.60865" lon="4.5905">
        <ele>656.01</ele>
        <time>2017-04-30T06:40:55Z</time>
      </trkpt>
      <trkpt lat="45.60877" lon="4.5908">
        <ele>657.89</ele>
        <time>2017-04-30T06:41:15Z</time>
      </trkpt>
      <trkpt lat="45.60888" lon="4.59111">
        <ele>659.55</ele>
        <time>2017-04-30T06:41:35Z</time>
      </trkpt>
      <trkpt lat="45.60896" lon="4.59154">
        <ele>660.77</ele>
        <time>2017-04-30T06:42:00Z</time>
      </trkpt>
      <trkpt lat="45.60897" lon="4.59163">
        <ele>663.07</ele>
        <time>2017-04-30T06:42:05Z</time>
      </trkpt>
      <trkpt lat="45.60897" lon="4.59197">
        <ele>660.56</ele>
        <time>2017-04-30T06:42:24Z</time>
      </trkpt>
      <trkpt lat="45.60895" lon="4.59242">
        <ele>659.43</ele>
        <time>2017-04-30T06:42:49Z</time>
      </trkpt>
      <trkpt lat="45.6089" lon="4.59283">
        <ele>657.41</ele>
        <time>2017-04-30T06:43:13Z</time>
      </trkpt>
      <trkpt lat="45.60887" lon="4.5933">
        <ele>656.57</ele>
        <time>2017-04-30T06:43:39Z</time>
      </trkpt>
      <trkpt lat="45.60884" lon="4.59368">
        <ele>655.35</ele>
        <time>2017-04-30T06:44:00Z</time>
      </trkpt>
      <trkpt lat="45.60875" lon="4.59407">
        <ele>656.74</ele>
        <time>2017-04-30T06:44:23Z</time>
      </trkpt>
      <trkpt lat="45.60868" lon="4.59446">
        <ele>657.57</ele>
        <time>2017-04-30T06:44:46Z</time>
      </trkpt>
      <trkpt lat="45.60869" lon="4.59483">
        <ele>657.22</ele>
        <time>2017-04-30T06:45:06Z</time>
      </trkpt>
      <trkpt lat="45.60873" lon="4.59527">
        <ele>656.84</ele>
        <time>2017-04-30T06:45:30Z</time>
      </trkpt>
      <trkpt lat="45.60884" lon="4.59565">
        <ele>655.9</ele>
        <time>2017-04-30T06:45:53Z</time>
      </trkpt>
      <trkpt lat="45.60897" lon="4.59592">
        <ele>657.78</ele>
        <time>2017-04-30T06:46:12Z</time>
      </trkpt>
      <trkpt lat="45.60913" lon="4.59611">
        <ele>656.54</ele>
        <time>2017-04-30T06:46:29Z</time>
      </trkpt>
      <trkpt lat="45.6093" lon="4.59631">
        <ele>656.36</ele>
        <time>2017-04-30T06:46:48Z</time>
      </trkpt>
      <trkpt lat="45.60939" lon="4.59655">
        <ele>654.7</ele>
        <time>2017-04-30T06:47:04Z</time>
      </trkpt>
      <trkpt lat="45.60954" lon="4.59688">
        <ele>652.26</ele>
        <time>2017-04-30T06:47:25Z</time>
      </trkpt>
      <trkpt lat="45.60967" lon="4.59716">
        <ele>650.43</ele>
        <time>2017-04-30T06:47:44Z</time>
      </trkpt>
      <trkpt lat="45.60977" lon="4.59726">
        <ele>652.53</ele>
        <time>2017-04-30T06:47:58Z</time>
      </trkpt>
      <trkpt lat="45.60983" lon="4.59724">
        <ele>653.68</ele>
        <time>2017-04-30T06:48:15Z</time>
      </trkpt>
      <trkpt lat="45.60985" lon="4.59724">
        <ele>654.27</ele>
        <time>2017-04-30T06:48:36Z</time>
      </trkpt>
      <trkpt lat="45.60986" lon="4.59724">
        <ele>654.04</ele>
        <time>2017-04-30T06:48:41Z</time>
      </trkpt>
      <trkpt lat="45.60976" lon="4.59725">
        <ele>654.07</ele>
        <time>2017-04-30T06:53:40Z</time>
      </trkpt>
      <trkpt lat="45.60972" lon="4.59725">
        <ele>653.13</ele>
        <time>2017-04-30T06:53:44Z</time>
      </trkpt>
      <trkpt lat="45.60973" lon="4.59734">
        <ele>652.14</ele>
        <time>2017-04-30T06:53:49Z</time>
      </trkpt>
      <trkpt lat="45.60982" lon="4.59759">
        <ele>648.98</ele>
        <time>2017-04-30T06:54:08Z</time>
      </trkpt>
      <trkpt lat="45.60999" lon="4.5977">
        <ele>645.87</ele>
        <time>2017-04-30T06:54:25Z</time>
      </trkpt>
      <trkpt lat="45.61023" lon="4.59775">
        <ele>642.9</ele>
        <time>2017-04-30T06:54:46Z</time>
      </trkpt>
      <trkpt lat="45.61029" lon="4.59782">
        <ele>641.76</ele>
        <time>2017-04-30T06:54:53Z</time>
      </trkpt>
      <trkpt lat="45.61029" lon="4.59795">
        <ele>641.48</ele>
        <time>2017-04-30T06:55:02Z</time>
      </trkpt>
      <trkpt lat="45.61028" lon="4.598">
        <ele>641.56</ele>
        <time>2017-04-30T06:55:05Z</time>
      </trkpt>
      <trkpt lat="45.61023" lon="4.59821">
        <ele>640.99</ele>
        <time>2017-04-30T06:55:18Z</time>
      </trkpt>
      <trkpt lat="45.61019" lon="4.59835">
        <ele>639.14</ele>
        <time>2017-04-30T06:55:27Z</time>
      </trkpt>
      <trkpt lat="45.61018" lon="4.59844">
        <ele>638.14</ele>
        <time>2017-04-30T06:55:32Z</time>
      </trkpt>
      <trkpt lat="45.61017" lon="4.59851">
        <ele>637.84</ele>
        <time>2017-04-30T06:55:36Z</time>
      </trkpt>
      <trkpt lat="45.61014" lon="4.59885">
        <ele>639.67</ele>
        <time>2017-04-30T06:55:54Z</time>
      </trkpt>
      <trkpt lat="45.6102" lon="4.59917">
        <ele>641.45</ele>
        <time>2017-04-30T06:56:14Z</time>
      </trkpt>
      <trkpt lat="45.61028" lon="4.59937">
        <ele>643.74</ele>
        <time>2017-04-30T06:56:29Z</time>
      </trkpt>
      <trkpt lat="45.61041" lon="4.59961">
        <ele>646.18</ele>
        <time>2017-04-30T06:56:48Z</time>
      </trkpt>
      <trkpt lat="45.61056" lon="4.59981">
        <ele>647.77</ele>
        <time>2017-04-30T06:57:06Z</time>
      </trkpt>
      <trkpt lat="45.61072" lon="4.59999">
        <ele>646.58</ele>
        <time>2017-04-30T06:57:24Z</time>
      </trkpt>
      <trkpt lat="45.6109" lon="4.60013">
        <ele>646.1</ele>
        <time>2017-04-30T06:57:41Z</time>
      </trkpt>
      <trkpt lat="45.61108" lon="4.60025">
        <ele>646.03</ele>
        <time>2017-04-30T06:57:58Z</time>
      </trkpt>
      <trkpt lat="45.61125" lon="4.60034">
        <ele>645.28</ele>
        <time>2017-04-30T06:58:13Z</time>
      </trkpt>
      <trkpt lat="45.61139" lon="4.60041">
        <ele>643.8</ele>
        <time>2017-04-30T06:58:28Z</time>
      </trkpt>
      <trkpt lat="45.61146" lon="4.60044">
        <ele>643.08</ele>
        <time>2017-04-30T06:58:34Z</time>
      </trkpt>
      <trkpt lat="45.61163" lon="4.60055">
        <ele>640.64</ele>
        <time>2017-04-30T06:58:51Z</time>
      </trkpt>
      <trkpt lat="45.61172" lon="4.60077">
        <ele>639.26</ele>
        <time>2017-04-30T06:59:07Z</time>
      </trkpt>
      <trkpt lat="45.61174" lon="4.60096">
        <ele>638.48</ele>
        <time>2017-04-30T06:59:19Z</time>
      </trkpt>
      <trkpt lat="45.61176" lon="4.60116">
        <ele>637.17</ele>
        <time>2017-04-30T06:59:32Z</time>
      </trkpt>
      <trkpt lat="45.61179" lon="4.6014">
        <ele>634.62</ele>
        <time>2017-04-30T06:59:46Z</time>
      </trkpt>
      <trkpt lat="45.61178" lon="4.60142">
        <ele>634.53</ele>
        <time>2017-04-30T06:59:47Z</time>
      </trkpt>
      <trkpt lat="45.61179" lon="4.60152">
        <ele>634.03</ele>
        <time>2017-04-30T06:59:52Z</time>
      </trkpt>
      <trkpt lat="45.61181" lon="4.60163">
        <ele>633.47</ele>
        <time>2017-04-30T06:59:57Z</time>
      </trkpt>
      <trkpt lat="45.61187" lon="4.60197">
        <ele>631.65</ele>
        <time>2017-04-30T07:00:14Z</time>
      </trkpt>
      <trkpt lat="45.61193" lon="4.60227">
        <ele>629.51</ele>
        <time>2017-04-30T07:00:33Z</time>
      </trkpt>
      <trkpt lat="45.61203" lon="4.60257">
        <ele>626.94</ele>
        <time>2017-04-30T07:00:53Z</time>
      </trkpt>
      <trkpt lat="45.61206" lon="4.60271">
        <ele>625.89</ele>
        <time>2017-04-30T07:01:03Z</time>
      </trkpt>
      <trkpt lat="45.61212" lon="4.6028">
        <ele>624.88</ele>
        <time>2017-04-30T07:01:10Z</time>
      </trkpt>
      <trkpt lat="45.61229" lon="4.603">
        <ele>625.32</ele>
        <time>2017-04-30T07:01:28Z</time>
      </trkpt>
      <trkpt lat="45.61239" lon="4.60321">
        <ele>624.37</ele>
        <time>2017-04-30T07:01:44Z</time>
      </trkpt>
      <trkpt lat="45.61255" lon="4.60343">
        <ele>623.8</ele>
        <time>2017-04-30T07:02:02Z</time>
      </trkpt>
      <trkpt lat="45.61271" lon="4.60354">
        <ele>623.65</ele>
        <time>2017-04-30T07:02:18Z</time>
      </trkpt>
      <trkpt lat="45.61276" lon="4.6036">
        <ele>623.99</ele>
        <time>2017-04-30T07:02:25Z</time>
      </trkpt>
      <trkpt lat="45.61283" lon="4.60375">
        <ele>624.01</ele>
        <time>2017-04-30T07:02:36Z</time>
      </trkpt>
      <trkpt lat="45.61284" lon="4.60378">
        <ele>624.23</ele>
        <time>2017-04-30T07:02:38Z</time>
      </trkpt>
      <trkpt lat="45.61288" lon="4.60397">
        <ele>624.98</ele>
        <time>2017-04-30T07:02:53Z</time>
      </trkpt>
      <trkpt lat="45.61288" lon="4.60425">
        <ele>626.98</ele>
        <time>2017-04-30T07:03:13Z</time>
      </trkpt>
      <trkpt lat="45.61289" lon="4.60436">
        <ele>627.31</ele>
        <time>2017-04-30T07:03:18Z</time>
      </trkpt>
      <trkpt lat="45.61295" lon="4.60475">
        <ele>627</ele>
        <time>2017-04-30T07:03:37Z</time>
      </trkpt>
      <trkpt lat="45.61297" lon="4.60505">
        <ele>629.23</ele>
        <time>2017-04-30T07:03:56Z</time>
      </trkpt>
      <trkpt lat="45.61306" lon="4.60523">
        <ele>631.16</ele>
        <time>2017-04-30T07:04:11Z</time>
      </trkpt>
      <trkpt lat="45.61315" lon="4.60535">
        <ele>632.52</ele>
        <time>2017-04-30T07:04:26Z</time>
      </trkpt>
      <trkpt lat="45.61317" lon="4.60538">
        <ele>632.7</ele>
        <time>2017-04-30T07:04:29Z</time>
      </trkpt>
      <trkpt lat="45.6132" lon="4.6054">
        <ele>632.57</ele>
        <time>2017-04-30T07:04:32Z</time>
      </trkpt>
      <trkpt lat="45.61334" lon="4.60555">
        <ele>631.4</ele>
        <time>2017-04-30T07:04:47Z</time>
      </trkpt>
      <trkpt lat="45.6134" lon="4.60561">
        <ele>630.58</ele>
        <time>2017-04-30T07:04:54Z</time>
      </trkpt>
      <trkpt lat="45.61346" lon="4.60566">
        <ele>629.6</ele>
        <time>2017-04-30T07:04:59Z</time>
      </trkpt>
      <trkpt lat="45.61353" lon="4.60568">
        <ele>628.92</ele>
        <time>2017-04-30T07:05:05Z</time>
      </trkpt>
      <trkpt lat="45.61367" lon="4.6057">
        <ele>630.28</ele>
        <time>2017-04-30T07:05:19Z</time>
      </trkpt>
      <trkpt lat="45.61386" lon="4.60575">
        <ele>630.97</ele>
        <time>2017-04-30T07:05:36Z</time>
      </trkpt>
      <trkpt lat="45.61407" lon="4.60577">
        <ele>631.93</ele>
        <time>2017-04-30T07:05:55Z</time>
      </trkpt>
      <trkpt lat="45.61424" lon="4.60583">
        <ele>633.4</ele>
        <time>2017-04-30T07:06:11Z</time>
      </trkpt>
      <trkpt lat="45.61439" lon="4.60582">
        <ele>631.81</ele>
        <time>2017-04-30T07:06:25Z</time>
      </trkpt>
      <trkpt lat="45.61455" lon="4.60574">
        <ele>630.7</ele>
        <time>2017-04-30T07:06:41Z</time>
      </trkpt>
      <trkpt lat="45.61465" lon="4.60562">
        <ele>631.64</ele>
        <time>2017-04-30T07:07:02Z</time>
      </trkpt>
      <trkpt lat="45.6148" lon="4.6057">
        <ele>630.67</ele>
        <time>2017-04-30T07:07:20Z</time>
      </trkpt>
      <trkpt lat="45.61487" lon="4.60577">
        <ele>630.57</ele>
        <time>2017-04-30T07:07:27Z</time>
      </trkpt>
      <trkpt lat="45.61504" lon="4.60596">
        <ele>631.36</ele>
        <time>2017-04-30T07:07:47Z</time>
      </trkpt>
      <trkpt lat="45.6152" lon="4.60612">
        <ele>631.57</ele>
        <time>2017-04-30T07:08:04Z</time>
      </trkpt>
      <trkpt lat="45.61521" lon="4.60613">
        <ele>631.48</ele>
        <time>2017-04-30T07:08:05Z</time>
      </trkpt>
      <trkpt lat="45.61524" lon="4.60616">
        <ele>631.25</ele>
        <time>2017-04-30T07:08:08Z</time>
      </trkpt>
      <trkpt lat="45.61539" lon="4.60626">
        <ele>629.36</ele>
        <time>2017-04-30T07:08:24Z</time>
      </trkpt>
      <trkpt lat="45.61546" lon="4.60633">
        <ele>628.45</ele>
        <time>2017-04-30T07:08:33Z</time>
      </trkpt>
      <trkpt lat="45.61564" lon="4.60651">
        <ele>626.68</ele>
        <time>2017-04-30T07:08:54Z</time>
      </trkpt>
      <trkpt lat="45.61584" lon="4.60675">
        <ele>624.94</ele>
        <time>2017-04-30T07:09:15Z</time>
      </trkpt>
      <trkpt lat="45.61604" lon="4.60702">
        <ele>624.95</ele>
        <time>2017-04-30T07:09:37Z</time>
      </trkpt>
      <trkpt lat="45.61614" lon="4.60715">
        <ele>624.23</ele>
        <time>2017-04-30T07:09:48Z</time>
      </trkpt>
      <trkpt lat="45.6163" lon="4.60738">
        <ele>624.4</ele>
        <time>2017-04-30T07:10:05Z</time>
      </trkpt>
      <trkpt lat="45.61648" lon="4.60759">
        <ele>624.06</ele>
        <time>2017-04-30T07:10:27Z</time>
      </trkpt>
      <trkpt lat="45.61666" lon="4.6076">
        <ele>624.84</ele>
        <time>2017-04-30T07:10:45Z</time>
      </trkpt>
      <trkpt lat="45.61689" lon="4.60761">
        <ele>627.63</ele>
        <time>2017-04-30T07:11:08Z</time>
      </trkpt>
      <trkpt lat="45.61709" lon="4.60752">
        <ele>628.95</ele>
        <time>2017-04-30T07:11:29Z</time>
      </trkpt>
      <trkpt lat="45.61724" lon="4.60742">
        <ele>630.83</ele>
        <time>2017-04-30T07:11:45Z</time>
      </trkpt>
      <trkpt lat="45.61737" lon="4.60737">
        <ele>631.3</ele>
        <time>2017-04-30T07:12:03Z</time>
      </trkpt>
      <trkpt lat="45.61743" lon="4.60738">
        <ele>631.89</ele>
        <time>2017-04-30T07:12:09Z</time>
      </trkpt>
      <trkpt lat="45.61757" lon="4.60742">
        <ele>633.05</ele>
        <time>2017-04-30T07:12:23Z</time>
      </trkpt>
      <trkpt lat="45.6177" lon="4.60748">
        <ele>635.87</ele>
        <time>2017-04-30T07:12:38Z</time>
      </trkpt>
      <trkpt lat="45.61781" lon="4.60755">
        <ele>636.75</ele>
        <time>2017-04-30T07:12:55Z</time>
      </trkpt>
      <trkpt lat="45.61786" lon="4.60754">
        <ele>636.81</ele>
        <time>2017-04-30T07:13:17Z</time>
      </trkpt>
      <trkpt lat="45.61803" lon="4.60759">
        <ele>639.25</ele>
        <time>2017-04-30T07:13:37Z</time>
      </trkpt>
      <trkpt lat="45.61801" lon="4.60755">
        <ele>641.53</ele>
        <time>2017-04-30T07:14:03Z</time>
      </trkpt>
      <trkpt lat="45.61801" lon="4.60756">
        <ele>641.71</ele>
        <time>2017-04-30T07:14:05Z</time>
      </trkpt>
      <trkpt lat="45.61852" lon="4.60735">
        <ele>647.77</ele>
        <time>2017-04-30T07:17:01Z</time>
      </trkpt>
      <trkpt lat="45.61867" lon="4.60737">
        <ele>646.79</ele>
        <time>2017-04-30T07:17:19Z</time>
      </trkpt>
      <trkpt lat="45.61859" lon="4.60734">
        <ele>646.75</ele>
        <time>2017-04-30T07:17:36Z</time>
      </trkpt>
      <trkpt lat="45.6184" lon="4.60732">
        <ele>648</ele>
        <time>2017-04-30T07:17:57Z</time>
      </trkpt>
      <trkpt lat="45.61824" lon="4.60736">
        <ele>645.96</ele>
        <time>2017-04-30T07:18:14Z</time>
      </trkpt>
      <trkpt lat="45.61825" lon="4.60739">
        <ele>646</ele>
        <time>2017-04-30T07:18:16Z</time>
      </trkpt>
      <trkpt lat="45.61825" lon="4.60743">
        <ele>646.02</ele>
        <time>2017-04-30T07:18:20Z</time>
      </trkpt>
      <trkpt lat="45.61818" lon="4.60751">
        <ele>642.83</ele>
        <time>2017-04-30T07:18:34Z</time>
      </trkpt>
      <trkpt lat="45.61806" lon="4.60758">
        <ele>639.79</ele>
        <time>2017-04-30T07:18:46Z</time>
      </trkpt>
      <trkpt lat="45.61789" lon="4.6076">
        <ele>636.64</ele>
        <time>2017-04-30T07:19:03Z</time>
      </trkpt>
      <trkpt lat="45.61784" lon="4.60759">
        <ele>636.19</ele>
        <time>2017-04-30T07:19:25Z</time>
      </trkpt>
      <trkpt lat="45.6178" lon="4.60762">
        <ele>635.56</ele>
        <time>2017-04-30T07:19:49Z</time>
      </trkpt>
      <trkpt lat="45.6178" lon="4.60764">
        <ele>635.91</ele>
        <time>2017-04-30T07:19:57Z</time>
      </trkpt>
      <trkpt lat="45.6179" lon="4.6082">
        <ele>627.89</ele>
        <time>2017-04-30T07:21:05Z</time>
      </trkpt>
      <trkpt lat="45.618" lon="4.60834">
        <ele>624.77</ele>
        <time>2017-04-30T07:21:23Z</time>
      </trkpt>
      <trkpt lat="45.61811" lon="4.60848">
        <ele>622.92</ele>
        <time>2017-04-30T07:21:38Z</time>
      </trkpt>
      <trkpt lat="45.61819" lon="4.60855">
        <ele>620.93</ele>
        <time>2017-04-30T07:21:46Z</time>
      </trkpt>
      <trkpt lat="45.61832" lon="4.60858">
        <ele>618.12</ele>
        <time>2017-04-30T07:22:02Z</time>
      </trkpt>
      <trkpt lat="45.61846" lon="4.60856">
        <ele>615.06</ele>
        <time>2017-04-30T07:22:18Z</time>
      </trkpt>
      <trkpt lat="45.61858" lon="4.60852">
        <ele>611.96</ele>
        <time>2017-04-30T07:22:34Z</time>
      </trkpt>
      <trkpt lat="45.61867" lon="4.60852">
        <ele>608.77</ele>
        <time>2017-04-30T07:22:46Z</time>
      </trkpt>
      <trkpt lat="45.61876" lon="4.60853">
        <ele>605.5</ele>
        <time>2017-04-30T07:22:57Z</time>
      </trkpt>
      <trkpt lat="45.61886" lon="4.60855">
        <ele>602.47</ele>
        <time>2017-04-30T07:23:07Z</time>
      </trkpt>
      <trkpt lat="45.61887" lon="4.60856">
        <ele>602.24</ele>
        <time>2017-04-30T07:23:08Z</time>
      </trkpt>
      <trkpt lat="45.619" lon="4.60861">
        <ele>599.03</ele>
        <time>2017-04-30T07:23:21Z</time>
      </trkpt>
      <trkpt lat="45.61912" lon="4.60865">
        <ele>595.96</ele>
        <time>2017-04-30T07:23:34Z</time>
      </trkpt>
      <trkpt lat="45.61926" lon="4.60873">
        <ele>592.91</ele>
        <time>2017-04-30T07:23:50Z</time>
      </trkpt>
      <trkpt lat="45.61941" lon="4.60882">
        <ele>591.39</ele>
        <time>2017-04-30T07:24:06Z</time>
      </trkpt>
      <trkpt lat="45.6195" lon="4.60887">
        <ele>589.89</ele>
        <time>2017-04-30T07:24:15Z</time>
      </trkpt>
      <trkpt lat="45.61965" lon="4.60889">
        <ele>587</ele>
        <time>2017-04-30T07:24:33Z</time>
      </trkpt>
      <trkpt lat="45.61974" lon="4.60887">
        <ele>585.02</ele>
        <time>2017-04-30T07:24:43Z</time>
      </trkpt>
      <trkpt lat="45.61986" lon="4.60885">
        <ele>583.99</ele>
        <time>2017-04-30T07:24:56Z</time>
      </trkpt>
      <trkpt lat="45.61998" lon="4.6088">
        <ele>583.8</ele>
        <time>2017-04-30T07:25:09Z</time>
      </trkpt>
      <trkpt lat="45.62002" lon="4.60878">
        <ele>584.25</ele>
        <time>2017-04-30T07:25:12Z</time>
      </trkpt>
      <trkpt lat="45.62018" lon="4.60881">
        <ele>584.85</ele>
        <time>2017-04-30T07:25:26Z</time>
      </trkpt>
      <trkpt lat="45.62034" lon="4.6088">
        <ele>585.43</ele>
        <time>2017-04-30T07:25:46Z</time>
      </trkpt>
      <trkpt lat="45.62039" lon="4.60885">
        <ele>585.69</ele>
        <time>2017-04-30T07:25:52Z</time>
      </trkpt>
      <trkpt lat="45.62042" lon="4.60896">
        <ele>585.97</ele>
        <time>2017-04-30T07:25:58Z</time>
      </trkpt>
      <trkpt lat="45.62042" lon="4.60921">
        <ele>584.23</ele>
        <time>2017-04-30T07:26:16Z</time>
      </trkpt>
      <trkpt lat="45.62041" lon="4.60924">
        <ele>583.48</ele>
        <time>2017-04-30T07:26:19Z</time>
      </trkpt>
      <trkpt lat="45.62033" lon="4.60947">
        <ele>580.79</ele>
        <time>2017-04-30T07:26:37Z</time>
      </trkpt>
      <trkpt lat="45.62031" lon="4.60955">
        <ele>579.79</ele>
        <time>2017-04-30T07:26:42Z</time>
      </trkpt>
      <trkpt lat="45.6203" lon="4.60961">
        <ele>579.5</ele>
        <time>2017-04-30T07:26:45Z</time>
      </trkpt>
      <trkpt lat="45.62022" lon="4.60978">
        <ele>578.96</ele>
        <time>2017-04-30T07:26:57Z</time>
      </trkpt>
      <trkpt lat="45.62022" lon="4.6098">
        <ele>578.94</ele>
        <time>2017-04-30T07:26:58Z</time>
      </trkpt>
      <trkpt lat="45.62017" lon="4.60997">
        <ele>577.73</ele>
        <time>2017-04-30T07:27:09Z</time>
      </trkpt>
      <trkpt lat="45.62011" lon="4.61026">
        <ele>577.84</ele>
        <time>2017-04-30T07:27:25Z</time>
      </trkpt>
      <trkpt lat="45.62009" lon="4.6104">
        <ele>576.29</ele>
        <time>2017-04-30T07:27:39Z</time>
      </trkpt>
      <trkpt lat="45.62009" lon="4.61047">
        <ele>576.17</ele>
        <time>2017-04-30T07:27:44Z</time>
      </trkpt>
      <trkpt lat="45.62009" lon="4.61051">
        <ele>576.25</ele>
        <time>2017-04-30T07:27:46Z</time>
      </trkpt>
      <trkpt lat="45.62005" lon="4.6107">
        <ele>573.76</ele>
        <time>2017-04-30T07:28:01Z</time>
      </trkpt>
      <trkpt lat="45.61997" lon="4.61094">
        <ele>570.74</ele>
        <time>2017-04-30T07:28:19Z</time>
      </trkpt>
      <trkpt lat="45.61991" lon="4.61117">
        <ele>567.53</ele>
        <time>2017-04-30T07:28:37Z</time>
      </trkpt>
      <trkpt lat="45.61988" lon="4.61139">
        <ele>564.31</ele>
        <time>2017-04-30T07:28:52Z</time>
      </trkpt>
      <trkpt lat="45.61992" lon="4.61157">
        <ele>561.11</ele>
        <time>2017-04-30T07:29:06Z</time>
      </trkpt>
      <trkpt lat="45.62001" lon="4.6117">
        <ele>558.1</ele>
        <time>2017-04-30T07:29:18Z</time>
      </trkpt>
      <trkpt lat="45.62008" lon="4.61194">
        <ele>557.99</ele>
        <time>2017-04-30T07:29:35Z</time>
      </trkpt>
      <trkpt lat="45.62022" lon="4.6121">
        <ele>555.58</ele>
        <time>2017-04-30T07:29:51Z</time>
      </trkpt>
      <trkpt lat="45.62035" lon="4.61221">
        <ele>553.51</ele>
        <time>2017-04-30T07:30:07Z</time>
      </trkpt>
      <trkpt lat="45.62046" lon="4.61233">
        <ele>551.33</ele>
        <time>2017-04-30T07:30:22Z</time>
      </trkpt>
      <trkpt lat="45.62052" lon="4.6124">
        <ele>549.9</ele>
        <time>2017-04-30T07:30:29Z</time>
      </trkpt>
      <trkpt lat="45.62064" lon="4.6125">
        <ele>546.53</ele>
        <time>2017-04-30T07:30:42Z</time>
      </trkpt>
      <trkpt lat="45.62083" lon="4.61266">
        <ele>544.13</ele>
        <time>2017-04-30T07:31:02Z</time>
      </trkpt>
      <trkpt lat="45.62095" lon="4.6128">
        <ele>543.34</ele>
        <time>2017-04-30T07:31:15Z</time>
      </trkpt>
      <trkpt lat="45.62111" lon="4.61294">
        <ele>541.67</ele>
        <time>2017-04-30T07:31:30Z</time>
      </trkpt>
      <trkpt lat="45.62127" lon="4.61312">
        <ele>539.53</ele>
        <time>2017-04-30T07:31:47Z</time>
      </trkpt>
      <trkpt lat="45.62139" lon="4.61328">
        <ele>539.22</ele>
        <time>2017-04-30T07:32:02Z</time>
      </trkpt>
      <trkpt lat="45.62146" lon="4.61337">
        <ele>538.72</ele>
        <time>2017-04-30T07:32:09Z</time>
      </trkpt>
      <trkpt lat="45.62158" lon="4.61346">
        <ele>537.59</ele>
        <time>2017-04-30T07:32:20Z</time>
      </trkpt>
      <trkpt lat="45.62172" lon="4.61355">
        <ele>537.51</ele>
        <time>2017-04-30T07:32:37Z</time>
      </trkpt>
      <trkpt lat="45.62173" lon="4.61353">
        <ele>537.68</ele>
        <time>2017-04-30T07:32:48Z</time>
      </trkpt>
      <trkpt lat="45.62157" lon="4.61346">
        <ele>538.3</ele>
        <time>2017-04-30T07:33:02Z</time>
      </trkpt>
      <trkpt lat="45.62142" lon="4.61343">
        <ele>536.32</ele>
        <time>2017-04-30T07:33:16Z</time>
      </trkpt>
      <trkpt lat="45.6213" lon="4.6134">
        <ele>533.46</ele>
        <time>2017-04-30T07:33:28Z</time>
      </trkpt>
      <trkpt lat="45.62113" lon="4.61337">
        <ele>530.97</ele>
        <time>2017-04-30T07:33:42Z</time>
      </trkpt>
      <trkpt lat="45.621" lon="4.61339">
        <ele>527.95</ele>
        <time>2017-04-30T07:33:55Z</time>
      </trkpt>
      <trkpt lat="45.62088" lon="4.61346">
        <ele>524.87</ele>
        <time>2017-04-30T07:34:08Z</time>
      </trkpt>
      <trkpt lat="45.62082" lon="4.6135">
        <ele>523.49</ele>
        <time>2017-04-30T07:34:13Z</time>
      </trkpt>
      <trkpt lat="45.62062" lon="4.61361">
        <ele>520.88</ele>
        <time>2017-04-30T07:34:31Z</time>
      </trkpt>
      <trkpt lat="45.62049" lon="4.61373">
        <ele>519.66</ele>
        <time>2017-04-30T07:34:43Z</time>
      </trkpt>
      <trkpt lat="45.62041" lon="4.61383">
        <ele>517.69</ele>
        <time>2017-04-30T07:34:53Z</time>
      </trkpt>
      <trkpt lat="45.62029" lon="4.61402">
        <ele>516.01</ele>
        <time>2017-04-30T07:35:07Z</time>
      </trkpt>
      <trkpt lat="45.62014" lon="4.61417">
        <ele>513.66</ele>
        <time>2017-04-30T07:35:23Z</time>
      </trkpt>
      <trkpt lat="45.61998" lon="4.61428">
        <ele>510.72</ele>
        <time>2017-04-30T07:35:39Z</time>
      </trkpt>
      <trkpt lat="45.61994" lon="4.61431">
        <ele>510.34</ele>
        <time>2017-04-30T07:35:43Z</time>
      </trkpt>
      <trkpt lat="45.61987" lon="4.61439">
        <ele>509.13</ele>
        <time>2017-04-30T07:35:52Z</time>
      </trkpt>
      <trkpt lat="45.6199" lon="4.61477">
        <ele>508.01</ele>
        <time>2017-04-30T07:36:10Z</time>
      </trkpt>
      <trkpt lat="45.61991" lon="4.61508">
        <ele>506.53</ele>
        <time>2017-04-30T07:36:28Z</time>
      </trkpt>
      <trkpt lat="45.61986" lon="4.61541">
        <ele>505.44</ele>
        <time>2017-04-30T07:36:47Z</time>
      </trkpt>
      <trkpt lat="45.6198" lon="4.61576">
        <ele>503.36</ele>
        <time>2017-04-30T07:37:07Z</time>
      </trkpt>
      <trkpt lat="45.61971" lon="4.61616">
        <ele>501.91</ele>
        <time>2017-04-30T07:37:30Z</time>
      </trkpt>
      <trkpt lat="45.61964" lon="4.6166">
        <ele>499.38</ele>
        <time>2017-04-30T07:37:55Z</time>
      </trkpt>
      <trkpt lat="45.61961" lon="4.61703">
        <ele>497.73</ele>
        <time>2017-04-30T07:38:18Z</time>
      </trkpt>
      <trkpt lat="45.61958" lon="4.61752">
        <ele>495.99</ele>
        <time>2017-04-30T07:38:44Z</time>
      </trkpt>
      <trkpt lat="45.61955" lon="4.61791">
        <ele>494.51</ele>
        <time>2017-04-30T07:39:05Z</time>
      </trkpt>
      <trkpt lat="45.61952" lon="4.61835">
        <ele>492.31</ele>
        <time>2017-04-30T07:39:29Z</time>
      </trkpt>
      <trkpt lat="45.61948" lon="4.61884">
        <ele>489.5</ele>
        <time>2017-04-30T07:39:56Z</time>
      </trkpt>
      <trkpt lat="45.61943" lon="4.61923">
        <ele>486.66</ele>
        <time>2017-04-30T07:40:19Z</time>
      </trkpt>
      <trkpt lat="45.61939" lon="4.61965">
        <ele>484.68</ele>
        <time>2017-04-30T07:40:41Z</time>
      </trkpt>
      <trkpt lat="45.61935" lon="4.62011">
        <ele>482.67</ele>
        <time>2017-04-30T07:41:06Z</time>
      </trkpt>
      <trkpt lat="45.61935" lon="4.62065">
        <ele>479.95</ele>
        <time>2017-04-30T07:41:34Z</time>
      </trkpt>
      <trkpt lat="45.61934" lon="4.62119">
        <ele>477.19</ele>
        <time>2017-04-30T07:42:03Z</time>
      </trkpt>
      <trkpt lat="45.61935" lon="4.62168">
        <ele>476.07</ele>
        <time>2017-04-30T07:42:29Z</time>
      </trkpt>
      <trkpt lat="45.61938" lon="4.62207">
        <ele>474.3</ele>
        <time>2017-04-30T07:42:50Z</time>
      </trkpt>
      <trkpt lat="45.61939" lon="4.6225">
        <ele>472.53</ele>
        <time>2017-04-30T07:43:13Z</time>
      </trkpt>
      <trkpt lat="45.61941" lon="4.62297">
        <ele>470.77</ele>
        <time>2017-04-30T07:43:38Z</time>
      </trkpt>
      <trkpt lat="45.61943" lon="4.62345">
        <ele>468.92</ele>
        <time>2017-04-30T07:44:05Z</time>
      </trkpt>
      <trkpt lat="45.61943" lon="4.62384">
        <ele>467.53</ele>
        <time>2017-04-30T07:44:26Z</time>
      </trkpt>
      <trkpt lat="45.61944" lon="4.6243">
        <ele>467.08</ele>
        <time>2017-04-30T07:44:51Z</time>
      </trkpt>
      <trkpt lat="45.61942" lon="4.62472">
        <ele>467.03</ele>
        <time>2017-04-30T07:45:14Z</time>
      </trkpt>
      <trkpt lat="45.61939" lon="4.62478">
        <ele>466.76</ele>
        <time>2017-04-30T07:45:19Z</time>
      </trkpt>
      <trkpt lat="45.61935" lon="4.62478">
        <ele>466.03</ele>
        <time>2017-04-30T07:45:23Z</time>
      </trkpt>
      <trkpt lat="45.61916" lon="4.62481">
        <ele>469.15</ele>
        <time>2017-04-30T07:45:38Z</time>
      </trkpt>
      <trkpt lat="45.61893" lon="4.62485">
        <ele>468.87</ele>
        <time>2017-04-30T07:45:56Z</time>
      </trkpt>
      <trkpt lat="45.61882" lon="4.62486">
        <ele>466.12</ele>
        <time>2017-04-30T07:46:05Z</time>
      </trkpt>
      <trkpt lat="45.61855" lon="4.62482">
        <ele>466.96</ele>
        <time>2017-04-30T07:46:26Z</time>
      </trkpt>
      <trkpt lat="45.61847" lon="4.6248">
        <ele>463.94</ele>
        <time>2017-04-30T07:46:33Z</time>
      </trkpt>
      <trkpt lat="45.61818" lon="4.62475">
        <ele>461.03</ele>
        <time>2017-04-30T07:46:57Z</time>
      </trkpt>
      <trkpt lat="45.61799" lon="4.62474">
        <ele>457.85</ele>
        <time>2017-04-30T07:47:14Z</time>
      </trkpt>
      <trkpt lat="45.61784" lon="4.62467">
        <ele>454.47</ele>
        <time>2017-04-30T07:47:29Z</time>
      </trkpt>
      <trkpt lat="45.61774" lon="4.62463">
        <ele>452.22</ele>
        <time>2017-04-30T07:47:45Z</time>
      </trkpt>
      <trkpt lat="45.61761" lon="4.62456">
        <ele>449.84</ele>
        <time>2017-04-30T07:48:00Z</time>
      </trkpt>
      <trkpt lat="45.61741" lon="4.62447">
        <ele>446.91</ele>
        <time>2017-04-30T07:48:17Z</time>
      </trkpt>
      <trkpt lat="45.6174" lon="4.62447">
        <ele>446.73</ele>
        <time>2017-04-30T07:48:18Z</time>
      </trkpt>
      <trkpt lat="45.61724" lon="4.62442">
        <ele>444.32</ele>
        <time>2017-04-30T07:48:32Z</time>
      </trkpt>
      <trkpt lat="45.61721" lon="4.62443">
        <ele>444.11</ele>
        <time>2017-04-30T07:48:34Z</time>
      </trkpt>
      <trkpt lat="45.61707" lon="4.62443">
        <ele>440.74</ele>
        <time>2017-04-30T07:48:45Z</time>
      </trkpt>
      <trkpt lat="45.61688" lon="4.62435">
        <ele>441.51</ele>
        <time>2017-04-30T07:49:00Z</time>
      </trkpt>
      <trkpt lat="45.61665" lon="4.62419">
        <ele>442.89</ele>
        <time>2017-04-30T07:49:20Z</time>
      </trkpt>
      <trkpt lat="45.61642" lon="4.62406">
        <ele>443.56</ele>
        <time>2017-04-30T07:49:41Z</time>
      </trkpt>
      <trkpt lat="45.61625" lon="4.62402">
        <ele>440.38</ele>
        <time>2017-04-30T07:49:55Z</time>
      </trkpt>
      <trkpt lat="45.61615" lon="4.624">
        <ele>439.83</ele>
        <time>2017-04-30T07:50:04Z</time>
      </trkpt>
      <trkpt lat="45.61602" lon="4.62407">
        <ele>436.55</ele>
        <time>2017-04-30T07:50:20Z</time>
      </trkpt>
      <trkpt lat="45.616" lon="4.62409">
        <ele>436.11</ele>
        <time>2017-04-30T07:50:22Z</time>
      </trkpt>
      <trkpt lat="45.61591" lon="4.6242">
        <ele>432.87</ele>
        <time>2017-04-30T07:50:33Z</time>
      </trkpt>
      <trkpt lat="45.61582" lon="4.62428">
        <ele>429.72</ele>
        <time>2017-04-30T07:50:44Z</time>
      </trkpt>
      <trkpt lat="45.61575" lon="4.62437">
        <ele>426.72</ele>
        <time>2017-04-30T07:50:53Z</time>
      </trkpt>
      <trkpt lat="45.61567" lon="4.62449">
        <ele>423.66</ele>
        <time>2017-04-30T07:51:04Z</time>
      </trkpt>
      <trkpt lat="45.6156" lon="4.62458">
        <ele>420.42</ele>
        <time>2017-04-30T07:51:13Z</time>
      </trkpt>
      <trkpt lat="45.61551" lon="4.62468">
        <ele>417.28</ele>
        <time>2017-04-30T07:51:23Z</time>
      </trkpt>
      <trkpt lat="45.61552" lon="4.62475">
        <ele>416.05</ele>
        <time>2017-04-30T07:51:28Z</time>
      </trkpt>
      <trkpt lat="45.61569" lon="4.62499">
        <ele>414.81</ele>
        <time>2017-04-30T07:51:47Z</time>
      </trkpt>
      <trkpt lat="45.61586" lon="4.62515">
        <ele>413.9</ele>
        <time>2017-04-30T07:52:03Z</time>
      </trkpt>
      <trkpt lat="45.61607" lon="4.62526">
        <ele>413.46</ele>
        <time>2017-04-30T07:52:20Z</time>
      </trkpt>
      <trkpt lat="45.61605" lon="4.6253">
        <ele>412.55</ele>
        <time>2017-04-30T07:52:26Z</time>
      </trkpt>
      <trkpt lat="45.61592" lon="4.62539">
        <ele>409.21</ele>
        <time>2017-04-30T07:52:39Z</time>
      </trkpt>
      <trkpt lat="45.61576" lon="4.62553">
        <ele>406.53</ele>
        <time>2017-04-30T07:52:55Z</time>
      </trkpt>
      <trkpt lat="45.61559" lon="4.62566">
        <ele>403.46</ele>
        <time>2017-04-30T07:53:09Z</time>
      </trkpt>
      <trkpt lat="45.61536" lon="4.62569">
        <ele>400.85</ele>
        <time>2017-04-30T07:53:27Z</time>
      </trkpt>
      <trkpt lat="45.61508" lon="4.62565">
        <ele>399.58</ele>
        <time>2017-04-30T07:53:50Z</time>
      </trkpt>
      <trkpt lat="45.61488" lon="4.62581">
        <ele>396.79</ele>
        <time>2017-04-30T07:54:09Z</time>
      </trkpt>
      <trkpt lat="45.61471" lon="4.62601">
        <ele>393.54</ele>
        <time>2017-04-30T07:54:26Z</time>
      </trkpt>
      <trkpt lat="45.61451" lon="4.62605">
        <ele>390.6</ele>
        <time>2017-04-30T07:54:43Z</time>
      </trkpt>
      <trkpt lat="45.61426" lon="4.62596">
        <ele>387.72</ele>
        <time>2017-04-30T07:55:03Z</time>
      </trkpt>
      <trkpt lat="45.61408" lon="4.62611">
        <ele>387.81</ele>
        <time>2017-04-30T07:55:20Z</time>
      </trkpt>
      <trkpt lat="45.6139" lon="4.62637">
        <ele>384.57</ele>
        <time>2017-04-30T07:55:42Z</time>
      </trkpt>
      <trkpt lat="45.61375" lon="4.62653">
        <ele>381.38</ele>
        <time>2017-04-30T07:55:57Z</time>
      </trkpt>
      <trkpt lat="45.61356" lon="4.62673">
        <ele>378.27</ele>
        <time>2017-04-30T07:56:15Z</time>
      </trkpt>
      <trkpt lat="45.6134" lon="4.627">
        <ele>375.74</ele>
        <time>2017-04-30T07:56:35Z</time>
      </trkpt>
      <trkpt lat="45.61327" lon="4.62723">
        <ele>372.63</ele>
        <time>2017-04-30T07:56:51Z</time>
      </trkpt>
      <trkpt lat="45.61314" lon="4.62749">
        <ele>369.59</ele>
        <time>2017-04-30T07:57:10Z</time>
      </trkpt>
      <trkpt lat="45.61312" lon="4.62771">
        <ele>366.48</ele>
        <time>2017-04-30T07:57:25Z</time>
      </trkpt>
      <trkpt lat="45.61327" lon="4.62805">
        <ele>365.36</ele>
        <time>2017-04-30T07:57:47Z</time>
      </trkpt>
      <trkpt lat="45.61346" lon="4.62847">
        <ele>362.87</ele>
        <time>2017-04-30T07:58:15Z</time>
      </trkpt>
      <trkpt lat="45.61366" lon="4.62874">
        <ele>359.87</ele>
        <time>2017-04-30T07:58:38Z</time>
      </trkpt>
      <trkpt lat="45.61395" lon="4.62882">
        <ele>358.23</ele>
        <time>2017-04-30T07:59:01Z</time>
      </trkpt>
      <trkpt lat="45.61397" lon="4.62926">
        <ele>358.9</ele>
        <time>2017-04-30T07:59:26Z</time>
      </trkpt>
      <trkpt lat="45.61399" lon="4.62971">
        <ele>357.54</ele>
        <time>2017-04-30T07:59:50Z</time>
      </trkpt>
      <trkpt lat="45.61406" lon="4.63018">
        <ele>358.32</ele>
        <time>2017-04-30T08:00:15Z</time>
      </trkpt>
      <trkpt lat="45.61418" lon="4.63065">
        <ele>359.55</ele>
        <time>2017-04-30T08:00:41Z</time>
      </trkpt>
      <trkpt lat="45.61434" lon="4.63104">
        <ele>359.5</ele>
        <time>2017-04-30T08:01:05Z</time>
      </trkpt>
      <trkpt lat="45.61453" lon="4.63143">
        <ele>359.83</ele>
        <time>2017-04-30T08:01:30Z</time>
      </trkpt>
      <trkpt lat="45.61471" lon="4.63184">
        <ele>360.64</ele>
        <time>2017-04-30T08:01:56Z</time>
      </trkpt>
      <trkpt lat="45.61486" lon="4.63224">
        <ele>360.42</ele>
        <time>2017-04-30T08:02:20Z</time>
      </trkpt>
      <trkpt lat="45.61505" lon="4.63251">
        <ele>360.74</ele>
        <time>2017-04-30T08:02:40Z</time>
      </trkpt>
      <trkpt lat="45.61529" lon="4.63273">
        <ele>361.86</ele>
        <time>2017-04-30T08:03:02Z</time>
      </trkpt>
      <trkpt lat="45.61557" lon="4.63296">
        <ele>362.85</ele>
        <time>2017-04-30T08:03:26Z</time>
      </trkpt>
      <trkpt lat="45.61583" lon="4.63325">
        <ele>361.34</ele>
        <time>2017-04-30T08:03:51Z</time>
      </trkpt>
      <trkpt lat="45.61611" lon="4.63357">
        <ele>360.96</ele>
        <time>2017-04-30T08:04:18Z</time>
      </trkpt>
      <trkpt lat="45.61635" lon="4.63398">
        <ele>361.3</ele>
        <time>2017-04-30T08:04:47Z</time>
      </trkpt>
      <trkpt lat="45.61648" lon="4.6344">
        <ele>363.85</ele>
        <time>2017-04-30T08:05:12Z</time>
      </trkpt>
      <trkpt lat="45.61656" lon="4.63463">
        <ele>364.99</ele>
        <time>2017-04-30T08:05:27Z</time>
      </trkpt>
      <trkpt lat="45.61667" lon="4.63489">
        <ele>368.12</ele>
        <time>2017-04-30T08:05:43Z</time>
      </trkpt>
      <trkpt lat="45.61679" lon="4.63524">
        <ele>370.55</ele>
        <time>2017-04-30T08:06:05Z</time>
      </trkpt>
      <trkpt lat="45.61692" lon="4.63555">
        <ele>373.69</ele>
        <time>2017-04-30T08:06:24Z</time>
      </trkpt>
      <trkpt lat="45.61711" lon="4.63588">
        <ele>374.98</ele>
        <time>2017-04-30T08:06:47Z</time>
      </trkpt>
      <trkpt lat="45.61713" lon="4.6359">
        <ele>374.98</ele>
        <time>2017-04-30T08:06:49Z</time>
      </trkpt>
      <trkpt lat="45.61717" lon="4.63583">
        <ele>375.57</ele>
        <time>2017-04-30T08:06:56Z</time>
      </trkpt>
      <trkpt lat="45.61713" lon="4.63552">
        <ele>378.36</ele>
        <time>2017-04-30T08:07:15Z</time>
      </trkpt>
      <trkpt lat="45.61723" lon="4.63526">
        <ele>379.96</ele>
        <time>2017-04-30T08:07:31Z</time>
      </trkpt>
      <trkpt lat="45.61733" lon="4.63499">
        <ele>382.27</ele>
        <time>2017-04-30T08:07:48Z</time>
      </trkpt>
      <trkpt lat="45.61739" lon="4.63473">
        <ele>385.03</ele>
        <time>2017-04-30T08:08:06Z</time>
      </trkpt>
      <trkpt lat="45.61747" lon="4.63464">
        <ele>386.9</ele>
        <time>2017-04-30T08:08:17Z</time>
      </trkpt>
      <trkpt lat="45.61749" lon="4.63471">
        <ele>388.16</ele>
        <time>2017-04-30T08:08:25Z</time>
      </trkpt>
      <trkpt lat="45.61746" lon="4.63484">
        <ele>388.3</ele>
        <time>2017-04-30T08:08:41Z</time>
      </trkpt>
      <trkpt lat="45.61746" lon="4.63485">
        <ele>389.58</ele>
        <time>2017-04-30T08:09:00Z</time>
      </trkpt>
      <trkpt lat="45.61747" lon="4.63486">
        <ele>388.19</ele>
        <time>2017-04-30T08:09:12Z</time>
      </trkpt>
      <trkpt lat="45.61743" lon="4.63467">
        <ele>386.98</ele>
        <time>2017-04-30T08:17:10Z</time>
      </trkpt>
      <trkpt lat="45.61733" lon="4.63481">
        <ele>385.78</ele>
        <time>2017-04-30T08:17:23Z</time>
      </trkpt>
      <trkpt lat="45.61728" lon="4.63512">
        <ele>383.52</ele>
        <time>2017-04-30T08:17:42Z</time>
      </trkpt>
      <trkpt lat="45.61718" lon="4.63532">
        <ele>380.43</ele>
        <time>2017-04-30T08:17:58Z</time>
      </trkpt>
      <trkpt lat="45.61711" lon="4.63542">
        <ele>379.53</ele>
        <time>2017-04-30T08:18:06Z</time>
      </trkpt>
      <trkpt lat="45.6171" lon="4.63545">
        <ele>379.61</ele>
        <time>2017-04-30T08:18:08Z</time>
      </trkpt>
      <trkpt lat="45.61711" lon="4.63555">
        <ele>379.25</ele>
        <time>2017-04-30T08:18:14Z</time>
      </trkpt>
      <trkpt lat="45.61718" lon="4.6359">
        <ele>376.54</ele>
        <time>2017-04-30T08:18:36Z</time>
      </trkpt>
      <trkpt lat="45.61715" lon="4.63603">
        <ele>375.41</ele>
        <time>2017-04-30T08:18:44Z</time>
      </trkpt>
      <trkpt lat="45.61706" lon="4.63621">
        <ele>373.55</ele>
        <time>2017-04-30T08:19:00Z</time>
      </trkpt>
      <trkpt lat="45.61697" lon="4.63634">
        <ele>370.47</ele>
        <time>2017-04-30T08:19:13Z</time>
      </trkpt>
      <trkpt lat="45.61686" lon="4.63652">
        <ele>367.34</ele>
        <time>2017-04-30T08:19:27Z</time>
      </trkpt>
      <trkpt lat="45.61674" lon="4.6367">
        <ele>365.2</ele>
        <time>2017-04-30T08:19:42Z</time>
      </trkpt>
      <trkpt lat="45.61663" lon="4.6369">
        <ele>362.19</ele>
        <time>2017-04-30T08:19:57Z</time>
      </trkpt>
      <trkpt lat="45.61648" lon="4.63714">
        <ele>359.87</ele>
        <time>2017-04-30T08:20:15Z</time>
      </trkpt>
      <trkpt lat="45.61636" lon="4.63737">
        <ele>357.23</ele>
        <time>2017-04-30T08:20:32Z</time>
      </trkpt>
      <trkpt lat="45.61626" lon="4.6376">
        <ele>355</ele>
        <time>2017-04-30T08:20:48Z</time>
      </trkpt>
      <trkpt lat="45.61628" lon="4.63768">
        <ele>354.03</ele>
        <time>2017-04-30T08:20:53Z</time>
      </trkpt>
      <trkpt lat="45.61646" lon="4.63805">
        <ele>352.6</ele>
        <time>2017-04-30T08:21:16Z</time>
      </trkpt>
      <trkpt lat="45.61663" lon="4.63836">
        <ele>353.27</ele>
        <time>2017-04-30T08:21:36Z</time>
      </trkpt>
      <trkpt lat="45.61677" lon="4.63867">
        <ele>353.02</ele>
        <time>2017-04-30T08:21:56Z</time>
      </trkpt>
      <trkpt lat="45.61678" lon="4.63882">
        <ele>352.68</ele>
        <time>2017-04-30T08:22:09Z</time>
      </trkpt>
      <trkpt lat="45.61676" lon="4.63884">
        <ele>352.28</ele>
        <time>2017-04-30T08:22:17Z</time>
      </trkpt>
      <trkpt lat="45.61675" lon="4.63886">
        <ele>352.32</ele>
        <time>2017-04-30T08:22:19Z</time>
      </trkpt>
      <trkpt lat="45.61672" lon="4.63894">
        <ele>352.49</ele>
        <time>2017-04-30T08:22:24Z</time>
      </trkpt>
      <trkpt lat="45.6167" lon="4.63903">
        <ele>349.9</ele>
        <time>2017-04-30T08:22:36Z</time>
      </trkpt>
      <trkpt lat="45.61669" lon="4.63912">
        <ele>349.76</ele>
        <time>2017-04-30T08:22:41Z</time>
      </trkpt>
      <trkpt lat="45.61665" lon="4.63942">
        <ele>349.34</ele>
        <time>2017-04-30T08:23:03Z</time>
      </trkpt>
      <trkpt lat="45.61664" lon="4.63945">
        <ele>348.24</ele>
        <time>2017-04-30T08:23:15Z</time>
      </trkpt>
      <trkpt lat="45.61661" lon="4.63985">
        <ele>349.68</ele>
        <time>2017-04-30T08:23:38Z</time>
      </trkpt>
      <trkpt lat="45.61661" lon="4.63987">
        <ele>349.18</ele>
        <time>2017-04-30T08:23:45Z</time>
      </trkpt>
      <trkpt lat="45.61659" lon="4.63995">
        <ele>349.49</ele>
        <time>2017-04-30T08:23:50Z</time>
      </trkpt>
      <trkpt lat="45.61655" lon="4.64043">
        <ele>349.09</ele>
        <time>2017-04-30T08:24:16Z</time>
      </trkpt>
      <trkpt lat="45.61648" lon="4.64085">
        <ele>348.94</ele>
        <time>2017-04-30T08:24:39Z</time>
      </trkpt>
      <trkpt lat="45.61639" lon="4.64118">
        <ele>347.76</ele>
        <time>2017-04-30T08:24:59Z</time>
      </trkpt>
      <trkpt lat="45.6163" lon="4.64151">
        <ele>346.89</ele>
        <time>2017-04-30T08:25:17Z</time>
      </trkpt>
      <trkpt lat="45.61628" lon="4.64153">
        <ele>346.84</ele>
        <time>2017-04-30T08:25:19Z</time>
      </trkpt>
      <trkpt lat="45.61623" lon="4.64167">
        <ele>346.11</ele>
        <time>2017-04-30T08:25:27Z</time>
      </trkpt>
      <trkpt lat="45.61609" lon="4.64206">
        <ele>346.32</ele>
        <time>2017-04-30T08:25:50Z</time>
      </trkpt>
      <trkpt lat="45.61595" lon="4.64242">
        <ele>346.05</ele>
        <time>2017-04-30T08:26:11Z</time>
      </trkpt>
      <trkpt lat="45.61582" lon="4.64276">
        <ele>344.19</ele>
        <time>2017-04-30T08:26:31Z</time>
      </trkpt>
      <trkpt lat="45.6158" lon="4.64313">
        <ele>343.16</ele>
        <time>2017-04-30T08:26:51Z</time>
      </trkpt>
      <trkpt lat="45.61571" lon="4.64346">
        <ele>340.94</ele>
        <time>2017-04-30T08:27:10Z</time>
      </trkpt>
      <trkpt lat="45.61554" lon="4.64383">
        <ele>338.54</ele>
        <time>2017-04-30T08:27:34Z</time>
      </trkpt>
      <trkpt lat="45.61552" lon="4.64385">
        <ele>338.36</ele>
        <time>2017-04-30T08:27:35Z</time>
      </trkpt>
      <trkpt lat="45.61538" lon="4.64412">
        <ele>336.12</ele>
        <time>2017-04-30T08:27:54Z</time>
      </trkpt>
      <trkpt lat="45.61522" lon="4.64442">
        <ele>333.77</ele>
        <time>2017-04-30T08:28:15Z</time>
      </trkpt>
      <trkpt lat="45.61505" lon="4.64475">
        <ele>331.1</ele>
        <time>2017-04-30T08:28:38Z</time>
      </trkpt>
      <trkpt lat="45.6149" lon="4.64505">
        <ele>329.29</ele>
        <time>2017-04-30T08:28:58Z</time>
      </trkpt>
      <trkpt lat="45.61474" lon="4.64533">
        <ele>327.59</ele>
        <time>2017-04-30T08:29:18Z</time>
      </trkpt>
      <trkpt lat="45.61457" lon="4.64565">
        <ele>326.6</ele>
        <time>2017-04-30T08:29:39Z</time>
      </trkpt>
      <trkpt lat="45.61437" lon="4.64595">
        <ele>325.56</ele>
        <time>2017-04-30T08:30:01Z</time>
      </trkpt>
      <trkpt lat="45.61415" lon="4.64622">
        <ele>324.28</ele>
        <time>2017-04-30T08:30:23Z</time>
      </trkpt>
      <trkpt lat="45.61396" lon="4.64642">
        <ele>323.63</ele>
        <time>2017-04-30T08:30:41Z</time>
      </trkpt>
      <trkpt lat="45.61375" lon="4.6467">
        <ele>322.78</ele>
        <time>2017-04-30T08:31:03Z</time>
      </trkpt>
      <trkpt lat="45.61355" lon="4.64699">
        <ele>320.85</ele>
        <time>2017-04-30T08:31:25Z</time>
      </trkpt>
      <trkpt lat="45.61343" lon="4.64722">
        <ele>317.78</ele>
        <time>2017-04-30T08:31:41Z</time>
      </trkpt>
      <trkpt lat="45.61326" lon="4.6475">
        <ele>317.35</ele>
        <time>2017-04-30T08:32:01Z</time>
      </trkpt>
      <trkpt lat="45.61308" lon="4.64782">
        <ele>315.4</ele>
        <time>2017-04-30T08:32:22Z</time>
      </trkpt>
      <trkpt lat="45.61296" lon="4.64804">
        <ele>314.83</ele>
        <time>2017-04-30T08:32:37Z</time>
      </trkpt>
      <trkpt lat="45.61279" lon="4.64837">
        <ele>314.69</ele>
        <time>2017-04-30T08:32:58Z</time>
      </trkpt>
      <trkpt lat="45.61267" lon="4.64861">
        <ele>313.71</ele>
        <time>2017-04-30T08:33:14Z</time>
      </trkpt>
      <trkpt lat="45.61253" lon="4.64889">
        <ele>312.04</ele>
        <time>2017-04-30T08:33:32Z</time>
      </trkpt>
      <trkpt lat="45.61241" lon="4.64914">
        <ele>311.74</ele>
        <time>2017-04-30T08:33:48Z</time>
      </trkpt>
      <trkpt lat="45.61227" lon="4.64943">
        <ele>311.53</ele>
        <time>2017-04-30T08:34:07Z</time>
      </trkpt>
      <trkpt lat="45.61208" lon="4.64981">
        <ele>311.4</ele>
        <time>2017-04-30T08:34:32Z</time>
      </trkpt>
      <trkpt lat="45.61193" lon="4.65011">
        <ele>310.35</ele>
        <time>2017-04-30T08:34:52Z</time>
      </trkpt>
      <trkpt lat="45.61179" lon="4.65038">
        <ele>309.21</ele>
        <time>2017-04-30T08:35:10Z</time>
      </trkpt>
      <trkpt lat="45.61171" lon="4.65057">
        <ele>307.24</ele>
        <time>2017-04-30T08:35:22Z</time>
      </trkpt>
      <trkpt lat="45.61158" lon="4.65089">
        <ele>305.81</ele>
        <time>2017-04-30T08:35:43Z</time>
      </trkpt>
      <trkpt lat="45.61148" lon="4.65114">
        <ele>305.32</ele>
        <time>2017-04-30T08:35:59Z</time>
      </trkpt>
      <trkpt lat="45.61144" lon="4.65125">
        <ele>304.76</ele>
        <time>2017-04-30T08:36:07Z</time>
      </trkpt>
      <trkpt lat="45.61129" lon="4.65136">
        <ele>304.29</ele>
        <time>2017-04-30T08:36:21Z</time>
      </trkpt>
      <trkpt lat="45.61107" lon="4.6513">
        <ele>303.35</ele>
        <time>2017-04-30T08:36:39Z</time>
      </trkpt>
      <trkpt lat="45.61081" lon="4.65118">
        <ele>305.77</ele>
        <time>2017-04-30T08:37:00Z</time>
      </trkpt>
      <trkpt lat="45.61057" lon="4.65107">
        <ele>306.43</ele>
        <time>2017-04-30T08:37:18Z</time>
      </trkpt>
      <trkpt lat="45.61036" lon="4.65095">
        <ele>307.62</ele>
        <time>2017-04-30T08:37:38Z</time>
      </trkpt>
      <trkpt lat="45.61013" lon="4.65083">
        <ele>307.54</ele>
        <time>2017-04-30T08:37:57Z</time>
      </trkpt>
      <trkpt lat="45.60988" lon="4.65065">
        <ele>308.11</ele>
        <time>2017-04-30T08:38:20Z</time>
      </trkpt>
      <trkpt lat="45.60976" lon="4.65052">
        <ele>308.11</ele>
        <time>2017-04-30T08:38:38Z</time>
      </trkpt>
      <trkpt lat="45.60976" lon="4.65052">
        <ele>307.76</ele>
        <time>2017-04-30T08:38:42Z</time>
      </trkpt>
      <trkpt lat="45.60973" lon="4.65051">
        <ele>307.48</ele>
        <time>2017-04-30T08:38:45Z</time>
      </trkpt>
      <trkpt lat="45.60948" lon="4.65047">
        <ele>308.28</ele>
        <time>2017-04-30T08:39:06Z</time>
      </trkpt>
      <trkpt lat="45.60924" lon="4.65055">
        <ele>305.93</ele>
        <time>2017-04-30T08:39:25Z</time>
      </trkpt>
      <trkpt lat="45.60908" lon="4.65056">
        <ele>302.87</ele>
        <time>2017-04-30T08:39:38Z</time>
      </trkpt>
      <trkpt lat="45.60881" lon="4.65045">
        <ele>300.37</ele>
        <time>2017-04-30T08:40:00Z</time>
      </trkpt>
      <trkpt lat="45.60858" lon="4.65031">
        <ele>299.03</ele>
        <time>2017-04-30T08:40:20Z</time>
      </trkpt>
      <trkpt lat="45.60831" lon="4.65015">
        <ele>297.53</ele>
        <time>2017-04-30T08:40:44Z</time>
      </trkpt>
      <trkpt lat="45.60816" lon="4.64995">
        <ele>295.6</ele>
        <time>2017-04-30T08:41:02Z</time>
      </trkpt>
      <trkpt lat="45.60801" lon="4.64977">
        <ele>294.24</ele>
        <time>2017-04-30T08:41:19Z</time>
      </trkpt>
      <trkpt lat="45.60798" lon="4.64948">
        <ele>291.01</ele>
        <time>2017-04-30T08:41:37Z</time>
      </trkpt>
      <trkpt lat="45.60798" lon="4.64922">
        <ele>289.69</ele>
        <time>2017-04-30T08:41:54Z</time>
      </trkpt>
      <trkpt lat="45.60789" lon="4.649">
        <ele>286.64</ele>
        <time>2017-04-30T08:42:10Z</time>
      </trkpt>
      <trkpt lat="45.60779" lon="4.64888">
        <ele>283.56</ele>
        <time>2017-04-30T08:42:22Z</time>
      </trkpt>
      <trkpt lat="45.6076" lon="4.64888">
        <ele>282.59</ele>
        <time>2017-04-30T08:42:38Z</time>
      </trkpt>
      <trkpt lat="45.60741" lon="4.64898">
        <ele>282.28</ele>
        <time>2017-04-30T08:42:55Z</time>
      </trkpt>
      <trkpt lat="45.60723" lon="4.64913">
        <ele>279.96</ele>
        <time>2017-04-30T08:43:12Z</time>
      </trkpt>
      <trkpt lat="45.60722" lon="4.64913">
        <ele>280.02</ele>
        <time>2017-04-30T08:43:13Z</time>
      </trkpt>
      <trkpt lat="45.60708" lon="4.6489">
        <ele>279.45</ele>
        <time>2017-04-30T08:43:32Z</time>
      </trkpt>
      <trkpt lat="45.60694" lon="4.64864">
        <ele>282.71</ele>
        <time>2017-04-30T08:43:50Z</time>
      </trkpt>
      <trkpt lat="45.6068" lon="4.64839">
        <ele>282.99</ele>
        <time>2017-04-30T08:44:08Z</time>
      </trkpt>
      <trkpt lat="45.60665" lon="4.64809">
        <ele>284.68</ele>
        <time>2017-04-30T08:44:29Z</time>
      </trkpt>
      <trkpt lat="45.6065" lon="4.64781">
        <ele>281.62</ele>
        <time>2017-04-30T08:44:48Z</time>
      </trkpt>
      <trkpt lat="45.60628" lon="4.64742">
        <ele>281</ele>
        <time>2017-04-30T08:45:15Z</time>
      </trkpt>
      <trkpt lat="45.60619" lon="4.64725">
        <ele>280.89</ele>
        <time>2017-04-30T08:45:27Z</time>
      </trkpt>
      <trkpt lat="45.60628" lon="4.64699">
        <ele>281.13</ele>
        <time>2017-04-30T08:45:43Z</time>
      </trkpt>
      <trkpt lat="45.60642" lon="4.64677">
        <ele>280.31</ele>
        <time>2017-04-30T08:46:00Z</time>
      </trkpt>
      <trkpt lat="45.60667" lon="4.64652">
        <ele>280.51</ele>
        <time>2017-04-30T08:46:24Z</time>
      </trkpt>
      <trkpt lat="45.60694" lon="4.64641">
        <ele>280.9</ele>
        <time>2017-04-30T08:46:46Z</time>
      </trkpt>
      <trkpt lat="45.60715" lon="4.64631">
        <ele>280.4</ele>
        <time>2017-04-30T08:47:05Z</time>
      </trkpt>
      <trkpt lat="45.60736" lon="4.64618">
        <ele>280.56</ele>
        <time>2017-04-30T08:47:23Z</time>
      </trkpt>
      <trkpt lat="45.60757" lon="4.64603">
        <ele>280.42</ele>
        <time>2017-04-30T08:47:42Z</time>
      </trkpt>
      <trkpt lat="45.60773" lon="4.64589">
        <ele>281.56</ele>
        <time>2017-04-30T08:47:57Z</time>
      </trkpt>
      <trkpt lat="45.60791" lon="4.64568">
        <ele>282.33</ele>
        <time>2017-04-30T08:48:16Z</time>
      </trkpt>
      <trkpt lat="45.60795" lon="4.64562">
        <ele>282.36</ele>
        <time>2017-04-30T08:48:20Z</time>
      </trkpt>
      <trkpt lat="45.60806" lon="4.64542">
        <ele>283.02</ele>
        <time>2017-04-30T08:48:34Z</time>
      </trkpt>
      <trkpt lat="45.60821" lon="4.64514">
        <ele>282.8</ele>
        <time>2017-04-30T08:48:54Z</time>
      </trkpt>
      <trkpt lat="45.60824" lon="4.64509">
        <ele>282.91</ele>
        <time>2017-04-30T08:48:58Z</time>
      </trkpt>
      <trkpt lat="45.6084" lon="4.64484">
        <ele>283.34</ele>
        <time>2017-04-30T08:49:16Z</time>
      </trkpt>
      <trkpt lat="45.60854" lon="4.64464">
        <ele>283.03</ele>
        <time>2017-04-30T08:49:32Z</time>
      </trkpt>
      <trkpt lat="45.60867" lon="4.64449">
        <ele>283.65</ele>
        <time>2017-04-30T08:49:46Z</time>
      </trkpt>
      <trkpt lat="45.6088" lon="4.64429">
        <ele>283.27</ele>
        <time>2017-04-30T08:50:03Z</time>
      </trkpt>
      <trkpt lat="45.60893" lon="4.64401">
        <ele>283.81</ele>
        <time>2017-04-30T08:50:21Z</time>
      </trkpt>
      <trkpt lat="45.60903" lon="4.6437">
        <ele>283.85</ele>
        <time>2017-04-30T08:50:38Z</time>
      </trkpt>
      <trkpt lat="45.60904" lon="4.64367">
        <ele>283.8</ele>
        <time>2017-04-30T08:50:40Z</time>
      </trkpt>
      <trkpt lat="45.60913" lon="4.64348">
        <ele>283.28</ele>
        <time>2017-04-30T08:50:53Z</time>
      </trkpt>
      <trkpt lat="45.60911" lon="4.64344">
        <ele>283.39</ele>
        <time>2017-04-30T08:50:56Z</time>
      </trkpt>
      <trkpt lat="45.60905" lon="4.64335">
        <ele>284.52</ele>
        <time>2017-04-30T08:51:13Z</time>
      </trkpt>
      <trkpt lat="45.60899" lon="4.64317">
        <ele>287.66</ele>
        <time>2017-04-30T08:51:32Z</time>
      </trkpt>
      <trkpt lat="45.60894" lon="4.64313">
        <ele>288.88</ele>
        <time>2017-04-30T08:51:39Z</time>
      </trkpt>
      <trkpt lat="45.60886" lon="4.64294">
        <ele>290.14</ele>
        <time>2017-04-30T08:51:57Z</time>
      </trkpt>
      <trkpt lat="45.60876" lon="4.64281">
        <ele>293.22</ele>
        <time>2017-04-30T08:52:16Z</time>
      </trkpt>
      <trkpt lat="45.60871" lon="4.64259">
        <ele>294.6</ele>
        <time>2017-04-30T08:52:35Z</time>
      </trkpt>
      <trkpt lat="45.60865" lon="4.64241">
        <ele>297.57</ele>
        <time>2017-04-30T08:52:55Z</time>
      </trkpt>
      <trkpt lat="45.60855" lon="4.64227">
        <ele>300.52</ele>
        <time>2017-04-30T08:53:12Z</time>
      </trkpt>
      <trkpt lat="45.60851" lon="4.64219">
        <ele>301.67</ele>
        <time>2017-04-30T08:53:19Z</time>
      </trkpt>
      <trkpt lat="45.60836" lon="4.64198">
        <ele>304.55</ele>
        <time>2017-04-30T08:53:39Z</time>
      </trkpt>
      <trkpt lat="45.60823" lon="4.64176">
        <ele>305.91</ele>
        <time>2017-04-30T08:53:57Z</time>
      </trkpt>
      <trkpt lat="45.60813" lon="4.64155">
        <ele>309.17</ele>
        <time>2017-04-30T08:54:14Z</time>
      </trkpt>
      <trkpt lat="45.60802" lon="4.64131">
        <ele>311.37</ele>
        <time>2017-04-30T08:54:31Z</time>
      </trkpt>
      <trkpt lat="45.60792" lon="4.64107">
        <ele>314.42</ele>
        <time>2017-04-30T08:54:47Z</time>
      </trkpt>
      <trkpt lat="45.60785" lon="4.64076">
        <ele>317.59</ele>
        <time>2017-04-30T08:55:06Z</time>
      </trkpt>
      <trkpt lat="45.60778" lon="4.64048">
        <ele>319.72</ele>
        <time>2017-04-30T08:55:23Z</time>
      </trkpt>
      <trkpt lat="45.60767" lon="4.64022">
        <ele>321.48</ele>
        <time>2017-04-30T08:55:41Z</time>
      </trkpt>
      <trkpt lat="45.60766" lon="4.64018">
        <ele>321.71</ele>
        <time>2017-04-30T08:55:44Z</time>
      </trkpt>
      <trkpt lat="45.60757" lon="4.63996">
        <ele>323.19</ele>
        <time>2017-04-30T08:55:59Z</time>
      </trkpt>
      <trkpt lat="45.60749" lon="4.63971">
        <ele>323.85</ele>
        <time>2017-04-30T08:56:15Z</time>
      </trkpt>
      <trkpt lat="45.6074" lon="4.63944">
        <ele>326.21</ele>
        <time>2017-04-30T08:56:32Z</time>
      </trkpt>
      <trkpt lat="45.6073" lon="4.63914">
        <ele>328.49</ele>
        <time>2017-04-30T08:56:51Z</time>
      </trkpt>
      <trkpt lat="45.60721" lon="4.63887">
        <ele>331.61</ele>
        <time>2017-04-30T08:57:08Z</time>
      </trkpt>
      <trkpt lat="45.60711" lon="4.63854">
        <ele>332.84</ele>
        <time>2017-04-30T08:57:28Z</time>
      </trkpt>
      <trkpt lat="45.60701" lon="4.63819">
        <ele>335.58</ele>
        <time>2017-04-30T08:57:49Z</time>
      </trkpt>
      <trkpt lat="45.60686" lon="4.63799">
        <ele>335.4</ele>
        <time>2017-04-30T08:58:07Z</time>
      </trkpt>
      <trkpt lat="45.60665" lon="4.63788">
        <ele>333.77</ele>
        <time>2017-04-30T08:58:25Z</time>
      </trkpt>
      <trkpt lat="45.60645" lon="4.63771">
        <ele>332.97</ele>
        <time>2017-04-30T08:58:43Z</time>
      </trkpt>
      <trkpt lat="45.60628" lon="4.63744">
        <ele>335.44</ele>
        <time>2017-04-30T08:59:03Z</time>
      </trkpt>
      <trkpt lat="45.60614" lon="4.6372">
        <ele>334.6</ele>
        <time>2017-04-30T08:59:20Z</time>
      </trkpt>
      <trkpt lat="45.60598" lon="4.63731">
        <ele>333.97</ele>
        <time>2017-04-30T08:59:36Z</time>
      </trkpt>
      <trkpt lat="45.60584" lon="4.6375">
        <ele>332.57</ele>
        <time>2017-04-30T08:59:53Z</time>
      </trkpt>
      <trkpt lat="45.6057" lon="4.63773">
        <ele>330.3</ele>
        <time>2017-04-30T09:00:10Z</time>
      </trkpt>
      <trkpt lat="45.60553" lon="4.63793">
        <ele>328.78</ele>
        <time>2017-04-30T09:00:28Z</time>
      </trkpt>
      <trkpt lat="45.60542" lon="4.63805">
        <ele>327.06</ele>
        <time>2017-04-30T09:00:40Z</time>
      </trkpt>
      <trkpt lat="45.60525" lon="4.63821">
        <ele>323.92</ele>
        <time>2017-04-30T09:00:56Z</time>
      </trkpt>
      <trkpt lat="45.60512" lon="4.63836">
        <ele>321.76</ele>
        <time>2017-04-30T09:01:10Z</time>
      </trkpt>
      <trkpt lat="45.60495" lon="4.63855">
        <ele>319.69</ele>
        <time>2017-04-30T09:01:27Z</time>
      </trkpt>
      <trkpt lat="45.60478" lon="4.63874">
        <ele>318.89</ele>
        <time>2017-04-30T09:01:44Z</time>
      </trkpt>
      <trkpt lat="45.6046" lon="4.63894">
        <ele>317.08</ele>
        <time>2017-04-30T09:02:02Z</time>
      </trkpt>
      <trkpt lat="45.60448" lon="4.63924">
        <ele>314.87</ele>
        <time>2017-04-30T09:02:22Z</time>
      </trkpt>
      <trkpt lat="45.60431" lon="4.6394">
        <ele>313.49</ele>
        <time>2017-04-30T09:02:40Z</time>
      </trkpt>
      <trkpt lat="45.60407" lon="4.63922">
        <ele>311.52</ele>
        <time>2017-04-30T09:03:02Z</time>
      </trkpt>
      <trkpt lat="45.60389" lon="4.63901">
        <ele>309.02</ele>
        <time>2017-04-30T09:03:22Z</time>
      </trkpt>
      <trkpt lat="45.60365" lon="4.6388">
        <ele>306.53</ele>
        <time>2017-04-30T09:03:45Z</time>
      </trkpt>
      <trkpt lat="45.60346" lon="4.63861">
        <ele>305.41</ele>
        <time>2017-04-30T09:04:05Z</time>
      </trkpt>
      <trkpt lat="45.60343" lon="4.63859">
        <ele>305.4</ele>
        <time>2017-04-30T09:04:08Z</time>
      </trkpt>
      <trkpt lat="45.60323" lon="4.63855">
        <ele>304.78</ele>
        <time>2017-04-30T09:04:25Z</time>
      </trkpt>
      <trkpt lat="45.60305" lon="4.63857">
        <ele>304.45</ele>
        <time>2017-04-30T09:04:39Z</time>
      </trkpt>
      <trkpt lat="45.60287" lon="4.63851">
        <ele>304.07</ele>
        <time>2017-04-30T09:04:53Z</time>
      </trkpt>
      <trkpt lat="45.60284" lon="4.63841">
        <ele>304.55</ele>
        <time>2017-04-30T09:05:00Z</time>
      </trkpt>
      <trkpt lat="45.60285" lon="4.63829">
        <ele>304.83</ele>
        <time>2017-04-30T09:05:07Z</time>
      </trkpt>
      <trkpt lat="45.60287" lon="4.63795">
        <ele>306.28</ele>
        <time>2017-04-30T09:05:26Z</time>
      </trkpt>
      <trkpt lat="45.60287" lon="4.63783">
        <ele>307.23</ele>
        <time>2017-04-30T09:05:34Z</time>
      </trkpt>
      <trkpt lat="45.60285" lon="4.63774">
        <ele>308.48</ele>
        <time>2017-04-30T09:05:40Z</time>
      </trkpt>
      <trkpt lat="45.60267" lon="4.6375">
        <ele>310.5</ele>
        <time>2017-04-30T09:06:01Z</time>
      </trkpt>
      <trkpt lat="45.6025" lon="4.63726">
        <ele>313.42</ele>
        <time>2017-04-30T09:06:21Z</time>
      </trkpt>
      <trkpt lat="45.60233" lon="4.63698">
        <ele>315.61</ele>
        <time>2017-04-30T09:06:43Z</time>
      </trkpt>
      <trkpt lat="45.60219" lon="4.63674">
        <ele>315.65</ele>
        <time>2017-04-30T09:07:02Z</time>
      </trkpt>
      <trkpt lat="45.60202" lon="4.63649">
        <ele>317.63</ele>
        <time>2017-04-30T09:07:22Z</time>
      </trkpt>
      <trkpt lat="45.60184" lon="4.63621">
        <ele>319.28</ele>
        <time>2017-04-30T09:07:44Z</time>
      </trkpt>
      <trkpt lat="45.60168" lon="4.63596">
        <ele>321.91</ele>
        <time>2017-04-30T09:08:04Z</time>
      </trkpt>
      <trkpt lat="45.60153" lon="4.63574">
        <ele>322.9</ele>
        <time>2017-04-30T09:08:22Z</time>
      </trkpt>
      <trkpt lat="45.60139" lon="4.63545">
        <ele>325.38</ele>
        <time>2017-04-30T09:08:43Z</time>
      </trkpt>
      <trkpt lat="45.60134" lon="4.63514">
        <ele>328.44</ele>
        <time>2017-04-30T09:09:02Z</time>
      </trkpt>
      <trkpt lat="45.60128" lon="4.63481">
        <ele>330.97</ele>
        <time>2017-04-30T09:09:23Z</time>
      </trkpt>
      <trkpt lat="45.60115" lon="4.63452">
        <ele>333.14</ele>
        <time>2017-04-30T09:09:43Z</time>
      </trkpt>
      <trkpt lat="45.60099" lon="4.6342">
        <ele>332.79</ele>
        <time>2017-04-30T09:10:04Z</time>
      </trkpt>
      <trkpt lat="45.60088" lon="4.63394">
        <ele>333.56</ele>
        <time>2017-04-30T09:10:21Z</time>
      </trkpt>
      <trkpt lat="45.60077" lon="4.63372">
        <ele>335.08</ele>
        <time>2017-04-30T09:10:36Z</time>
      </trkpt>
      <trkpt lat="45.60064" lon="4.63356">
        <ele>335.76</ele>
        <time>2017-04-30T09:10:53Z</time>
      </trkpt>
      <trkpt lat="45.6006" lon="4.63359">
        <ele>335.59</ele>
        <time>2017-04-30T09:10:57Z</time>
      </trkpt>
      <trkpt lat="45.60047" lon="4.63366">
        <ele>334.56</ele>
        <time>2017-04-30T09:11:10Z</time>
      </trkpt>
      <trkpt lat="45.60035" lon="4.63388">
        <ele>331.35</ele>
        <time>2017-04-30T09:11:28Z</time>
      </trkpt>
      <trkpt lat="45.60029" lon="4.63398">
        <ele>329.46</ele>
        <time>2017-04-30T09:11:37Z</time>
      </trkpt>
      <trkpt lat="45.60012" lon="4.63413">
        <ele>327.06</ele>
        <time>2017-04-30T09:11:54Z</time>
      </trkpt>
      <trkpt lat="45.59995" lon="4.63427">
        <ele>325.62</ele>
        <time>2017-04-30T09:12:11Z</time>
      </trkpt>
      <trkpt lat="45.59994" lon="4.63428">
        <ele>325.65</ele>
        <time>2017-04-30T09:12:12Z</time>
      </trkpt>
      <trkpt lat="45.59987" lon="4.63433">
        <ele>326.57</ele>
        <time>2017-04-30T09:12:19Z</time>
      </trkpt>
      <trkpt lat="45.5998" lon="4.63437">
        <ele>324.75</ele>
        <time>2017-04-30T09:12:25Z</time>
      </trkpt>
      <trkpt lat="45.59963" lon="4.63449">
        <ele>323.65</ele>
        <time>2017-04-30T09:12:41Z</time>
      </trkpt>
      <trkpt lat="45.59948" lon="4.63466">
        <ele>322.26</ele>
        <time>2017-04-30T09:12:58Z</time>
      </trkpt>
      <trkpt lat="45.59939" lon="4.6349">
        <ele>320.86</ele>
        <time>2017-04-30T09:13:15Z</time>
      </trkpt>
      <trkpt lat="45.59935" lon="4.63514">
        <ele>317.82</ele>
        <time>2017-04-30T09:13:30Z</time>
      </trkpt>
      <trkpt lat="45.59933" lon="4.63529">
        <ele>316.07</ele>
        <time>2017-04-30T09:13:40Z</time>
      </trkpt>
      <trkpt lat="45.59927" lon="4.6356">
        <ele>314.04</ele>
        <time>2017-04-30T09:14:01Z</time>
      </trkpt>
      <trkpt lat="45.59921" lon="4.63574">
        <ele>311.03</ele>
        <time>2017-04-30T09:14:11Z</time>
      </trkpt>
      <trkpt lat="45.5991" lon="4.63587">
        <ele>307.87</ele>
        <time>2017-04-30T09:14:23Z</time>
      </trkpt>
      <trkpt lat="45.59901" lon="4.63595">
        <ele>304.74</ele>
        <time>2017-04-30T09:14:32Z</time>
      </trkpt>
      <trkpt lat="45.59882" lon="4.63615">
        <ele>303.85</ele>
        <time>2017-04-30T09:14:51Z</time>
      </trkpt>
      <trkpt lat="45.59868" lon="4.63633">
        <ele>302.07</ele>
        <time>2017-04-30T09:15:07Z</time>
      </trkpt>
      <trkpt lat="45.59853" lon="4.63652">
        <ele>300.98</ele>
        <time>2017-04-30T09:15:23Z</time>
      </trkpt>
      <trkpt lat="45.59838" lon="4.6367">
        <ele>299.23</ele>
        <time>2017-04-30T09:15:39Z</time>
      </trkpt>
      <trkpt lat="45.59819" lon="4.6369">
        <ele>296.91</ele>
        <time>2017-04-30T09:15:58Z</time>
      </trkpt>
      <trkpt lat="45.59802" lon="4.63708">
        <ele>294.92</ele>
        <time>2017-04-30T09:16:14Z</time>
      </trkpt>
      <trkpt lat="45.59787" lon="4.63721">
        <ele>294.17</ele>
        <time>2017-04-30T09:16:27Z</time>
      </trkpt>
      <trkpt lat="45.59775" lon="4.63731">
        <ele>293.28</ele>
        <time>2017-04-30T09:16:39Z</time>
      </trkpt>
      <trkpt lat="45.59758" lon="4.63748">
        <ele>290.76</ele>
        <time>2017-04-30T09:16:56Z</time>
      </trkpt>
      <trkpt lat="45.59745" lon="4.63758">
        <ele>289.95</ele>
        <time>2017-04-30T09:17:08Z</time>
      </trkpt>
      <trkpt lat="45.59741" lon="4.63758">
        <ele>289.7</ele>
        <time>2017-04-30T09:17:11Z</time>
      </trkpt>
      <trkpt lat="45.59734" lon="4.6373">
        <ele>286.99</ele>
        <time>2017-04-30T09:17:28Z</time>
      </trkpt>
      <trkpt lat="45.59731" lon="4.63699">
        <ele>287.06</ele>
        <time>2017-04-30T09:17:46Z</time>
      </trkpt>
      <trkpt lat="45.59726" lon="4.63666">
        <ele>286.9</ele>
        <time>2017-04-30T09:18:04Z</time>
      </trkpt>
      <trkpt lat="45.59718" lon="4.63633">
        <ele>288.1</ele>
        <time>2017-04-30T09:18:24Z</time>
      </trkpt>
      <trkpt lat="45.59705" lon="4.63608">
        <ele>289.64</ele>
        <time>2017-04-30T09:18:42Z</time>
      </trkpt>
      <trkpt lat="45.59689" lon="4.63586">
        <ele>291.11</ele>
        <time>2017-04-30T09:19:00Z</time>
      </trkpt>
      <trkpt lat="45.59671" lon="4.63557">
        <ele>292.37</ele>
        <time>2017-04-30T09:19:21Z</time>
      </trkpt>
      <trkpt lat="45.5966" lon="4.63525">
        <ele>292.88</ele>
        <time>2017-04-30T09:19:41Z</time>
      </trkpt>
      <trkpt lat="45.59649" lon="4.63491">
        <ele>293.22</ele>
        <time>2017-04-30T09:20:02Z</time>
      </trkpt>
      <trkpt lat="45.59644" lon="4.63463">
        <ele>293.48</ele>
        <time>2017-04-30T09:20:20Z</time>
      </trkpt>
      <trkpt lat="45.59642" lon="4.63436">
        <ele>293.13</ele>
        <time>2017-04-30T09:20:36Z</time>
      </trkpt>
      <trkpt lat="45.59624" lon="4.6343">
        <ele>291.45</ele>
        <time>2017-04-30T09:20:54Z</time>
      </trkpt>
      <trkpt lat="45.59609" lon="4.63416">
        <ele>290.43</ele>
        <time>2017-04-30T09:21:10Z</time>
      </trkpt>
      <trkpt lat="45.59608" lon="4.63414">
        <ele>290.39</ele>
        <time>2017-04-30T09:21:11Z</time>
      </trkpt>
      <trkpt lat="45.59611" lon="4.63376">
        <ele>289.53</ele>
        <time>2017-04-30T09:21:33Z</time>
      </trkpt>
      <trkpt lat="45.59617" lon="4.63335">
        <ele>290.85</ele>
        <time>2017-04-30T09:21:56Z</time>
      </trkpt>
      <trkpt lat="45.59621" lon="4.633">
        <ele>290.8</ele>
        <time>2017-04-30T09:22:16Z</time>
      </trkpt>
      <trkpt lat="45.59629" lon="4.63266">
        <ele>291.6</ele>
        <time>2017-04-30T09:22:37Z</time>
      </trkpt>
      <trkpt lat="45.59634" lon="4.63236">
        <ele>289.34</ele>
        <time>2017-04-30T09:22:55Z</time>
      </trkpt>
      <trkpt lat="45.59632" lon="4.63206">
        <ele>287.92</ele>
        <time>2017-04-30T09:23:14Z</time>
      </trkpt>
      <trkpt lat="45.59614" lon="4.63191">
        <ele>286.48</ele>
        <time>2017-04-30T09:23:30Z</time>
      </trkpt>
      <trkpt lat="45.59599" lon="4.63177">
        <ele>286.96</ele>
        <time>2017-04-30T09:23:45Z</time>
      </trkpt>
      <trkpt lat="45.59587" lon="4.6315">
        <ele>288.87</ele>
        <time>2017-04-30T09:24:04Z</time>
      </trkpt>
      <trkpt lat="45.59586" lon="4.63114">
        <ele>291.44</ele>
        <time>2017-04-30T09:24:25Z</time>
      </trkpt>
      <trkpt lat="45.59582" lon="4.63077">
        <ele>292.29</ele>
        <time>2017-04-30T09:24:45Z</time>
      </trkpt>
      <trkpt lat="45.59579" lon="4.63044">
        <ele>292.7</ele>
        <time>2017-04-30T09:25:03Z</time>
      </trkpt>
      <trkpt lat="45.59576" lon="4.6301">
        <ele>291.85</ele>
        <time>2017-04-30T09:25:21Z</time>
      </trkpt>
      <trkpt lat="45.5957" lon="4.62977">
        <ele>291.25</ele>
        <time>2017-04-30T09:25:39Z</time>
      </trkpt>
      <trkpt lat="45.5956" lon="4.62932">
        <ele>289.18</ele>
        <time>2017-04-30T09:26:04Z</time>
      </trkpt>
      <trkpt lat="45.59557" lon="4.62906">
        <ele>289.45</ele>
        <time>2017-04-30T09:26:19Z</time>
      </trkpt>
      <trkpt lat="45.59555" lon="4.62887">
        <ele>288.44</ele>
        <time>2017-04-30T09:26:29Z</time>
      </trkpt>
      <trkpt lat="45.59554" lon="4.6288">
        <ele>287.85</ele>
        <time>2017-04-30T09:26:33Z</time>
      </trkpt>
      <trkpt lat="45.59553" lon="4.62868">
        <ele>288.52</ele>
        <time>2017-04-30T09:26:40Z</time>
      </trkpt>
      <trkpt lat="45.59546" lon="4.62839">
        <ele>287.84</ele>
        <time>2017-04-30T09:26:57Z</time>
      </trkpt>
      <trkpt lat="45.59531" lon="4.62807">
        <ele>286.37</ele>
        <time>2017-04-30T09:27:18Z</time>
      </trkpt>
      <trkpt lat="45.59518" lon="4.6278">
        <ele>287.18</ele>
        <time>2017-04-30T09:27:37Z</time>
      </trkpt>
      <trkpt lat="45.59506" lon="4.62753">
        <ele>286.16</ele>
        <time>2017-04-30T09:27:55Z</time>
      </trkpt>
      <trkpt lat="45.59493" lon="4.62715">
        <ele>285.39</ele>
        <time>2017-04-30T09:28:19Z</time>
      </trkpt>
      <trkpt lat="45.59486" lon="4.62694">
        <ele>285.22</ele>
        <time>2017-04-30T09:28:36Z</time>
      </trkpt>
      <trkpt lat="45.5948" lon="4.62695">
        <ele>284.86</ele>
        <time>2017-04-30T09:28:43Z</time>
      </trkpt>
      <trkpt lat="45.59468" lon="4.62707">
        <ele>284.03</ele>
        <time>2017-04-30T09:28:58Z</time>
      </trkpt>
      <trkpt lat="45.59463" lon="4.6272">
        <ele>283.53</ele>
        <time>2017-04-30T09:29:11Z</time>
      </trkpt>
      <trkpt lat="45.59467" lon="4.62746">
        <ele>282.54</ele>
        <time>2017-04-30T09:29:29Z</time>
      </trkpt>
      <trkpt lat="45.59465" lon="4.62768">
        <ele>283.04</ele>
        <time>2017-04-30T09:29:44Z</time>
      </trkpt>
      <trkpt lat="45.59462" lon="4.62792">
        <ele>283.7</ele>
        <time>2017-04-30T09:30:03Z</time>
      </trkpt>
      <trkpt lat="45.59455" lon="4.6281">
        <ele>286.76</ele>
        <time>2017-04-30T09:30:18Z</time>
      </trkpt>
      <trkpt lat="45.59447" lon="4.62832">
        <ele>288.18</ele>
        <time>2017-04-30T09:30:37Z</time>
      </trkpt>
      <trkpt lat="45.59438" lon="4.62846">
        <ele>291.22</ele>
        <time>2017-04-30T09:30:53Z</time>
      </trkpt>
      <trkpt lat="45.59427" lon="4.62861">
        <ele>293.17</ele>
        <time>2017-04-30T09:31:09Z</time>
      </trkpt>
      <trkpt lat="45.59412" lon="4.6287">
        <ele>293.33</ele>
        <time>2017-04-30T09:31:25Z</time>
      </trkpt>
      <trkpt lat="45.59394" lon="4.62871">
        <ele>295.21</ele>
        <time>2017-04-30T09:31:43Z</time>
      </trkpt>
      <trkpt lat="45.59392" lon="4.62871">
        <ele>295.44</ele>
        <time>2017-04-30T09:31:45Z</time>
      </trkpt>
      <trkpt lat="45.59383" lon="4.62872">
        <ele>297.48</ele>
        <time>2017-04-30T09:31:54Z</time>
      </trkpt>
      <trkpt lat="45.59376" lon="4.62872">
        <ele>298.08</ele>
        <time>2017-04-30T09:31:59Z</time>
      </trkpt>
      <trkpt lat="45.59358" lon="4.62871">
        <ele>299.83</ele>
        <time>2017-04-30T09:32:16Z</time>
      </trkpt>
      <trkpt lat="45.59343" lon="4.62877">
        <ele>301.59</ele>
        <time>2017-04-30T09:32:33Z</time>
      </trkpt>
      <trkpt lat="45.5933" lon="4.62895">
        <ele>302.52</ele>
        <time>2017-04-30T09:32:48Z</time>
      </trkpt>
      <trkpt lat="45.59322" lon="4.62918">
        <ele>302.83</ele>
        <time>2017-04-30T09:33:03Z</time>
      </trkpt>
      <trkpt lat="45.59315" lon="4.6294">
        <ele>304.05</ele>
        <time>2017-04-30T09:33:20Z</time>
      </trkpt>
      <trkpt lat="45.59309" lon="4.62955">
        <ele>304.83</ele>
        <time>2017-04-30T09:33:33Z</time>
      </trkpt>
      <trkpt lat="45.59305" lon="4.62965">
        <ele>305.98</ele>
        <time>2017-04-30T09:33:41Z</time>
      </trkpt>
      <trkpt lat="45.59301" lon="4.62973">
        <ele>306.82</ele>
        <time>2017-04-30T09:33:48Z</time>
      </trkpt>
      <trkpt lat="45.59293" lon="4.62997">
        <ele>309.34</ele>
        <time>2017-04-30T09:34:06Z</time>
      </trkpt>
      <trkpt lat="45.5929" lon="4.63007">
        <ele>310.43</ele>
        <time>2017-04-30T09:34:15Z</time>
      </trkpt>
      <trkpt lat="45.59277" lon="4.63035">
        <ele>312.43</ele>
        <time>2017-04-30T09:34:35Z</time>
      </trkpt>
      <trkpt lat="45.59263" lon="4.63064">
        <ele>313.8</ele>
        <time>2017-04-30T09:34:57Z</time>
      </trkpt>
      <trkpt lat="45.59248" lon="4.63096">
        <ele>316.44</ele>
        <time>2017-04-30T09:35:20Z</time>
      </trkpt>
      <trkpt lat="45.59236" lon="4.63133">
        <ele>317.09</ele>
        <time>2017-04-30T09:35:43Z</time>
      </trkpt>
      <trkpt lat="45.59224" lon="4.63166">
        <ele>316.92</ele>
        <time>2017-04-30T09:36:04Z</time>
      </trkpt>
      <trkpt lat="45.59216" lon="4.63196">
        <ele>316.07</ele>
        <time>2017-04-30T09:36:24Z</time>
      </trkpt>
      <trkpt lat="45.59237" lon="4.63207">
        <ele>313.75</ele>
        <time>2017-04-30T09:36:45Z</time>
      </trkpt>
      <trkpt lat="45.59264" lon="4.63224">
        <ele>310.86</ele>
        <time>2017-04-30T09:37:09Z</time>
      </trkpt>
      <trkpt lat="45.59287" lon="4.63235">
        <ele>309.6</ele>
        <time>2017-04-30T09:37:30Z</time>
      </trkpt>
      <trkpt lat="45.59315" lon="4.6325">
        <ele>307.91</ele>
        <time>2017-04-30T09:37:54Z</time>
      </trkpt>
      <trkpt lat="45.59308" lon="4.63269">
        <ele>307.34</ele>
        <time>2017-04-30T09:38:09Z</time>
      </trkpt>
      <trkpt lat="45.59285" lon="4.63289">
        <ele>307.81</ele>
        <time>2017-04-30T09:38:31Z</time>
      </trkpt>
      <trkpt lat="45.59266" lon="4.6331">
        <ele>307.87</ele>
        <time>2017-04-30T09:38:51Z</time>
      </trkpt>
      <trkpt lat="45.59258" lon="4.63346">
        <ele>305.36</ele>
        <time>2017-04-30T09:39:14Z</time>
      </trkpt>
      <trkpt lat="45.59252" lon="4.63376">
        <ele>302.3</ele>
        <time>2017-04-30T09:39:33Z</time>
      </trkpt>
      <trkpt lat="45.59235" lon="4.63406">
        <ele>299.99</ele>
        <time>2017-04-30T09:39:57Z</time>
      </trkpt>
      <trkpt lat="45.59217" lon="4.63427">
        <ele>299.81</ele>
        <time>2017-04-30T09:40:16Z</time>
      </trkpt>
      <trkpt lat="45.59203" lon="4.63443">
        <ele>297.97</ele>
        <time>2017-04-30T09:40:32Z</time>
      </trkpt>
      <trkpt lat="45.59194" lon="4.63456">
        <ele>296.1</ele>
        <time>2017-04-30T09:40:47Z</time>
      </trkpt>
      <trkpt lat="45.59179" lon="4.63466">
        <ele>294.6</ele>
        <time>2017-04-30T09:41:04Z</time>
      </trkpt>
      <trkpt lat="45.59177" lon="4.63471">
        <ele>293.93</ele>
        <time>2017-04-30T09:41:08Z</time>
      </trkpt>
      <trkpt lat="45.59174" lon="4.63479">
        <ele>293.26</ele>
        <time>2017-04-30T09:41:13Z</time>
      </trkpt>
      <trkpt lat="45.59171" lon="4.63497">
        <ele>292.02</ele>
        <time>2017-04-30T09:41:27Z</time>
      </trkpt>
      <trkpt lat="45.59163" lon="4.63508">
        <ele>290.91</ele>
        <time>2017-04-30T09:41:39Z</time>
      </trkpt>
      <trkpt lat="45.59153" lon="4.63519">
        <ele>289.04</ele>
        <time>2017-04-30T09:41:52Z</time>
      </trkpt>
      <trkpt lat="45.5915" lon="4.6352">
        <ele>288.33</ele>
        <time>2017-04-30T09:41:56Z</time>
      </trkpt>
      <trkpt lat="45.59144" lon="4.63524">
        <ele>287.08</ele>
        <time>2017-04-30T09:42:02Z</time>
      </trkpt>
      <trkpt lat="45.5912" lon="4.63534">
        <ele>284.25</ele>
        <time>2017-04-30T09:42:24Z</time>
      </trkpt>
      <trkpt lat="45.59106" lon="4.63553">
        <ele>284.2</ele>
        <time>2017-04-30T09:42:41Z</time>
      </trkpt>
      <trkpt lat="45.59122" lon="4.63574">
        <ele>284.42</ele>
        <time>2017-04-30T09:42:59Z</time>
      </trkpt>
      <trkpt lat="45.59134" lon="4.63592">
        <ele>285.21</ele>
        <time>2017-04-30T09:43:16Z</time>
      </trkpt>
      <trkpt lat="45.5914" lon="4.63612">
        <ele>287.48</ele>
        <time>2017-04-30T09:43:33Z</time>
      </trkpt>
      <trkpt lat="45.59142" lon="4.63632">
        <ele>289.54</ele>
        <time>2017-04-30T09:43:51Z</time>
      </trkpt>
      <trkpt lat="45.59142" lon="4.63637">
        <ele>290.24</ele>
        <time>2017-04-30T09:43:56Z</time>
      </trkpt>
      <trkpt lat="45.59139" lon="4.63663">
        <ele>292.99</ele>
        <time>2017-04-30T09:44:14Z</time>
      </trkpt>
      <trkpt lat="45.59131" lon="4.63685">
        <ele>294.29</ele>
        <time>2017-04-30T09:44:30Z</time>
      </trkpt>
      <trkpt lat="45.59128" lon="4.63684">
        <ele>295.17</ele>
        <time>2017-04-30T09:44:42Z</time>
      </trkpt>
      <trkpt lat="45.59129" lon="4.63685">
        <ele>295.72</ele>
        <time>2017-04-30T09:45:00Z</time>
      </trkpt>
      <trkpt lat="45.59128" lon="4.63685">
        <ele>295.61</ele>
        <time>2017-04-30T09:45:14Z</time>
      </trkpt>
      <trkpt lat="45.59122" lon="4.63728">
        <ele>297.83</ele>
        <time>2017-04-30T09:55:57Z</time>
      </trkpt>
      <trkpt lat="45.59118" lon="4.63762">
        <ele>297.2</ele>
        <time>2017-04-30T09:56:17Z</time>
      </trkpt>
      <trkpt lat="45.59112" lon="4.6379">
        <ele>296.39</ele>
        <time>2017-04-30T09:56:35Z</time>
      </trkpt>
      <trkpt lat="45.59104" lon="4.63818">
        <ele>295.82</ele>
        <time>2017-04-30T09:56:53Z</time>
      </trkpt>
      <trkpt lat="45.59094" lon="4.63852">
        <ele>295.12</ele>
        <time>2017-04-30T09:57:14Z</time>
      </trkpt>
      <trkpt lat="45.59085" lon="4.63883">
        <ele>296.35</ele>
        <time>2017-04-30T09:57:33Z</time>
      </trkpt>
      <trkpt lat="45.59078" lon="4.6391">
        <ele>295.71</ele>
        <time>2017-04-30T09:57:49Z</time>
      </trkpt>
      <trkpt lat="45.5907" lon="4.63941">
        <ele>295.28</ele>
        <time>2017-04-30T09:58:07Z</time>
      </trkpt>
      <trkpt lat="45.59061" lon="4.63975">
        <ele>294.7</ele>
        <time>2017-04-30T09:58:26Z</time>
      </trkpt>
      <trkpt lat="45.59054" lon="4.64005">
        <ele>293.9</ele>
        <time>2017-04-30T09:58:43Z</time>
      </trkpt>
      <trkpt lat="45.59044" lon="4.64036">
        <ele>294.08</ele>
        <time>2017-04-30T09:59:01Z</time>
      </trkpt>
      <trkpt lat="45.59035" lon="4.64064">
        <ele>294.1</ele>
        <time>2017-04-30T09:59:18Z</time>
      </trkpt>
      <trkpt lat="45.59017" lon="4.64079">
        <ele>295.11</ele>
        <time>2017-04-30T09:59:37Z</time>
      </trkpt>
      <trkpt lat="45.58997" lon="4.64091">
        <ele>297.16</ele>
        <time>2017-04-30T09:59:57Z</time>
      </trkpt>
      <trkpt lat="45.58978" lon="4.64104">
        <ele>299.53</ele>
        <time>2017-04-30T10:00:16Z</time>
      </trkpt>
      <trkpt lat="45.58959" lon="4.64117">
        <ele>301.26</ele>
        <time>2017-04-30T10:00:36Z</time>
      </trkpt>
      <trkpt lat="45.58946" lon="4.64126">
        <ele>302.54</ele>
        <time>2017-04-30T10:00:52Z</time>
      </trkpt>
      <trkpt lat="45.58943" lon="4.64128">
        <ele>303.01</ele>
        <time>2017-04-30T10:00:55Z</time>
      </trkpt>
      <trkpt lat="45.58922" lon="4.64143">
        <ele>304.45</ele>
        <time>2017-04-30T10:01:15Z</time>
      </trkpt>
      <trkpt lat="45.58893" lon="4.64163">
        <ele>307.2</ele>
        <time>2017-04-30T10:01:41Z</time>
      </trkpt>
      <trkpt lat="45.58867" lon="4.64183">
        <ele>307.29</ele>
        <time>2017-04-30T10:02:05Z</time>
      </trkpt>
      <trkpt lat="45.58847" lon="4.64196">
        <ele>306.53</ele>
        <time>2017-04-30T10:02:23Z</time>
      </trkpt>
      <trkpt lat="45.58819" lon="4.64207">
        <ele>306.62</ele>
        <time>2017-04-30T10:02:47Z</time>
      </trkpt>
      <trkpt lat="45.58793" lon="4.64217">
        <ele>308.39</ele>
        <time>2017-04-30T10:03:10Z</time>
      </trkpt>
      <trkpt lat="45.58766" lon="4.64227">
        <ele>309.48</ele>
        <time>2017-04-30T10:03:33Z</time>
      </trkpt>
      <trkpt lat="45.58752" lon="4.64232">
        <ele>310.31</ele>
        <time>2017-04-30T10:03:51Z</time>
      </trkpt>
      <trkpt lat="45.58751" lon="4.64234">
        <ele>311.16</ele>
        <time>2017-04-30T10:03:55Z</time>
      </trkpt>
      <trkpt lat="45.58731" lon="4.64239">
        <ele>310.27</ele>
        <time>2017-04-30T10:04:12Z</time>
      </trkpt>
      <trkpt lat="45.58709" lon="4.6424">
        <ele>308.81</ele>
        <time>2017-04-30T10:04:30Z</time>
      </trkpt>
      <trkpt lat="45.58677" lon="4.64224">
        <ele>310.22</ele>
        <time>2017-04-30T10:04:57Z</time>
      </trkpt>
      <trkpt lat="45.58651" lon="4.6421">
        <ele>309.82</ele>
        <time>2017-04-30T10:05:19Z</time>
      </trkpt>
      <trkpt lat="45.58647" lon="4.64209">
        <ele>309.72</ele>
        <time>2017-04-30T10:05:23Z</time>
      </trkpt>
      <trkpt lat="45.58645" lon="4.6421">
        <ele>309.88</ele>
        <time>2017-04-30T10:05:25Z</time>
      </trkpt>
      <trkpt lat="45.58626" lon="4.6422">
        <ele>309.44</ele>
        <time>2017-04-30T10:05:44Z</time>
      </trkpt>
      <trkpt lat="45.586" lon="4.64209">
        <ele>307.97</ele>
        <time>2017-04-30T10:06:07Z</time>
      </trkpt>
      <trkpt lat="45.58579" lon="4.64195">
        <ele>307.05</ele>
        <time>2017-04-30T10:06:26Z</time>
      </trkpt>
      <trkpt lat="45.58558" lon="4.64175">
        <ele>307.43</ele>
        <time>2017-04-30T10:06:48Z</time>
      </trkpt>
      <trkpt lat="45.58554" lon="4.64168">
        <ele>306.71</ele>
        <time>2017-04-30T10:06:59Z</time>
      </trkpt>
      <trkpt lat="45.58545" lon="4.64145">
        <ele>307.9</ele>
        <time>2017-04-30T10:07:17Z</time>
      </trkpt>
      <trkpt lat="45.5854" lon="4.64132">
        <ele>308.16</ele>
        <time>2017-04-30T10:07:34Z</time>
      </trkpt>
      <trkpt lat="45.5854" lon="4.6413">
        <ele>308.15</ele>
        <time>2017-04-30T10:07:35Z</time>
      </trkpt>
      <trkpt lat="45.58534" lon="4.64097">
        <ele>307.88</ele>
        <time>2017-04-30T10:07:56Z</time>
      </trkpt>
      <trkpt lat="45.58527" lon="4.64069">
        <ele>308.52</ele>
        <time>2017-04-30T10:08:14Z</time>
      </trkpt>
      <trkpt lat="45.58511" lon="4.64036">
        <ele>307.67</ele>
        <time>2017-04-30T10:08:35Z</time>
      </trkpt>
      <trkpt lat="45.58498" lon="4.64013">
        <ele>306.49</ele>
        <time>2017-04-30T10:08:53Z</time>
      </trkpt>
      <trkpt lat="45.58491" lon="4.64005">
        <ele>305.39</ele>
        <time>2017-04-30T10:09:09Z</time>
      </trkpt>
      <trkpt lat="45.58489" lon="4.64003">
        <ele>305.62</ele>
        <time>2017-04-30T10:09:28Z</time>
      </trkpt>
      <trkpt lat="45.58513" lon="4.64052">
        <ele>308.96</ele>
        <time>2017-04-30T10:11:55Z</time>
      </trkpt>
      <trkpt lat="45.58523" lon="4.64079">
        <ele>309.41</ele>
        <time>2017-04-30T10:12:11Z</time>
      </trkpt>
      <trkpt lat="45.5853" lon="4.64107">
        <ele>308.37</ele>
        <time>2017-04-30T10:12:27Z</time>
      </trkpt>
      <trkpt lat="45.58536" lon="4.64135">
        <ele>308.67</ele>
        <time>2017-04-30T10:12:42Z</time>
      </trkpt>
      <trkpt lat="45.58547" lon="4.64165">
        <ele>307.63</ele>
        <time>2017-04-30T10:13:01Z</time>
      </trkpt>
      <trkpt lat="45.58551" lon="4.64168">
        <ele>307.39</ele>
        <time>2017-04-30T10:13:05Z</time>
      </trkpt>
      <trkpt lat="45.58568" lon="4.64181">
        <ele>307.67</ele>
        <time>2017-04-30T10:13:22Z</time>
      </trkpt>
      <trkpt lat="45.58565" lon="4.6418">
        <ele>308.23</ele>
        <time>2017-04-30T10:13:28Z</time>
      </trkpt>
      <trkpt lat="45.58554" lon="4.64168">
        <ele>306.28</ele>
        <time>2017-04-30T10:13:44Z</time>
      </trkpt>
      <trkpt lat="45.58553" lon="4.64164">
        <ele>306.27</ele>
        <time>2017-04-30T10:13:46Z</time>
      </trkpt>
      <trkpt lat="45.58543" lon="4.64137">
        <ele>307.57</ele>
        <time>2017-04-30T10:14:06Z</time>
      </trkpt>
      <trkpt lat="45.58537" lon="4.64109">
        <ele>307.53</ele>
        <time>2017-04-30T10:14:21Z</time>
      </trkpt>
      <trkpt lat="45.5853" lon="4.64085">
        <ele>307.83</ele>
        <time>2017-04-30T10:14:37Z</time>
      </trkpt>
      <trkpt lat="45.58523" lon="4.64062">
        <ele>308.24</ele>
        <time>2017-04-30T10:14:52Z</time>
      </trkpt>
      <trkpt lat="45.5851" lon="4.64034">
        <ele>308.86</ele>
        <time>2017-04-30T10:15:09Z</time>
      </trkpt>
      <trkpt lat="45.58497" lon="4.64013">
        <ele>307.08</ele>
        <time>2017-04-30T10:15:25Z</time>
      </trkpt>
      <trkpt lat="45.58483" lon="4.63998">
        <ele>305.06</ele>
        <time>2017-04-30T10:15:40Z</time>
      </trkpt>
      <trkpt lat="45.5848" lon="4.63995">
        <ele>304.99</ele>
        <time>2017-04-30T10:15:43Z</time>
      </trkpt>
      <trkpt lat="45.58463" lon="4.63975">
        <ele>303.95</ele>
        <time>2017-04-30T10:16:01Z</time>
      </trkpt>
      <trkpt lat="45.58444" lon="4.63952">
        <ele>303.23</ele>
        <time>2017-04-30T10:16:20Z</time>
      </trkpt>
      <trkpt lat="45.58422" lon="4.63931">
        <ele>302.21</ele>
        <time>2017-04-30T10:16:40Z</time>
      </trkpt>
      <trkpt lat="45.58413" lon="4.63922">
        <ele>302.19</ele>
        <time>2017-04-30T10:16:49Z</time>
      </trkpt>
      <trkpt lat="45.58394" lon="4.63912">
        <ele>301.37</ele>
        <time>2017-04-30T10:17:06Z</time>
      </trkpt>
      <trkpt lat="45.58391" lon="4.6391">
        <ele>301.39</ele>
        <time>2017-04-30T10:17:09Z</time>
      </trkpt>
      <trkpt lat="45.58371" lon="4.63904">
        <ele>301.24</ele>
        <time>2017-04-30T10:17:26Z</time>
      </trkpt>
      <trkpt lat="45.58349" lon="4.63899">
        <ele>300.53</ele>
        <time>2017-04-30T10:17:44Z</time>
      </trkpt>
      <trkpt lat="45.58321" lon="4.63893">
        <ele>299.62</ele>
        <time>2017-04-30T10:18:05Z</time>
      </trkpt>
      <trkpt lat="45.58297" lon="4.6389">
        <ele>298.26</ele>
        <time>2017-04-30T10:18:24Z</time>
      </trkpt>
      <trkpt lat="45.58261" lon="4.6389">
        <ele>297.89</ele>
        <time>2017-04-30T10:18:52Z</time>
      </trkpt>
      <trkpt lat="45.5823" lon="4.63889">
        <ele>298.35</ele>
        <time>2017-04-30T10:19:17Z</time>
      </trkpt>
      <trkpt lat="45.58205" lon="4.63885">
        <ele>298.64</ele>
        <time>2017-04-30T10:19:37Z</time>
      </trkpt>
      <trkpt lat="45.58182" lon="4.63884">
        <ele>298.05</ele>
        <time>2017-04-30T10:19:55Z</time>
      </trkpt>
      <trkpt lat="45.58153" lon="4.63878">
        <ele>297.17</ele>
        <time>2017-04-30T10:20:18Z</time>
      </trkpt>
      <trkpt lat="45.58122" lon="4.63861">
        <ele>297.75</ele>
        <time>2017-04-30T10:20:45Z</time>
      </trkpt>
      <trkpt lat="45.58092" lon="4.63842">
        <ele>300.98</ele>
        <time>2017-04-30T10:21:11Z</time>
      </trkpt>
      <trkpt lat="45.58066" lon="4.6383">
        <ele>302.2</ele>
        <time>2017-04-30T10:21:34Z</time>
      </trkpt>
      <trkpt lat="45.58043" lon="4.63826">
        <ele>303.93</ele>
        <time>2017-04-30T10:21:54Z</time>
      </trkpt>
      <trkpt lat="45.58019" lon="4.63825">
        <ele>301.9</ele>
        <time>2017-04-30T10:22:14Z</time>
      </trkpt>
      <trkpt lat="45.57989" lon="4.63821">
        <ele>304.29</ele>
        <time>2017-04-30T10:22:38Z</time>
      </trkpt>
      <trkpt lat="45.57974" lon="4.63802">
        <ele>306.33</ele>
        <time>2017-04-30T10:22:57Z</time>
      </trkpt>
      <trkpt lat="45.57975" lon="4.63765">
        <ele>308.05</ele>
        <time>2017-04-30T10:23:19Z</time>
      </trkpt>
      <trkpt lat="45.5798" lon="4.63729">
        <ele>309.55</ele>
        <time>2017-04-30T10:23:41Z</time>
      </trkpt>
      <trkpt lat="45.57981" lon="4.63706">
        <ele>310.39</ele>
        <time>2017-04-30T10:23:56Z</time>
      </trkpt>
      <trkpt lat="45.57984" lon="4.63682">
        <ele>311.52</ele>
        <time>2017-04-30T10:24:12Z</time>
      </trkpt>
      <trkpt lat="45.57988" lon="4.6364">
        <ele>314.33</ele>
        <time>2017-04-30T10:24:37Z</time>
      </trkpt>
      <trkpt lat="45.57995" lon="4.63601">
        <ele>316.34</ele>
        <time>2017-04-30T10:25:01Z</time>
      </trkpt>
      <trkpt lat="45.58" lon="4.63562">
        <ele>319.25</ele>
        <time>2017-04-30T10:25:25Z</time>
      </trkpt>
      <trkpt lat="45.58004" lon="4.63528">
        <ele>318.18</ele>
        <time>2017-04-30T10:25:47Z</time>
      </trkpt>
      <trkpt lat="45.57999" lon="4.63502">
        <ele>321.1</ele>
        <time>2017-04-30T10:26:05Z</time>
      </trkpt>
      <trkpt lat="45.57995" lon="4.63479">
        <ele>324.22</ele>
        <time>2017-04-30T10:26:20Z</time>
      </trkpt>
      <trkpt lat="45.58001" lon="4.63457">
        <ele>327.23</ele>
        <time>2017-04-30T10:26:34Z</time>
      </trkpt>
      <trkpt lat="45.58015" lon="4.63431">
        <ele>330.33</ele>
        <time>2017-04-30T10:26:54Z</time>
      </trkpt>
      <trkpt lat="45.5803" lon="4.63408">
        <ele>333.25</ele>
        <time>2017-04-30T10:27:13Z</time>
      </trkpt>
      <trkpt lat="45.58046" lon="4.6338">
        <ele>333.19</ele>
        <time>2017-04-30T10:27:36Z</time>
      </trkpt>
      <trkpt lat="45.5806" lon="4.63355">
        <ele>335.45</ele>
        <time>2017-04-30T10:27:55Z</time>
      </trkpt>
      <trkpt lat="45.58074" lon="4.63327">
        <ele>337.3</ele>
        <time>2017-04-30T10:28:16Z</time>
      </trkpt>
      <trkpt lat="45.58083" lon="4.63295">
        <ele>338.56</ele>
        <time>2017-04-30T10:28:36Z</time>
      </trkpt>
      <trkpt lat="45.58071" lon="4.63265">
        <ele>340.23</ele>
        <time>2017-04-30T10:28:57Z</time>
      </trkpt>
      <trkpt lat="45.5805" lon="4.63232">
        <ele>339.79</ele>
        <time>2017-04-30T10:29:23Z</time>
      </trkpt>
      <trkpt lat="45.58028" lon="4.63202">
        <ele>341.58</ele>
        <time>2017-04-30T10:29:48Z</time>
      </trkpt>
      <trkpt lat="45.58015" lon="4.63173">
        <ele>342.83</ele>
        <time>2017-04-30T10:30:08Z</time>
      </trkpt>
      <trkpt lat="45.58022" lon="4.6314">
        <ele>345.2</ele>
        <time>2017-04-30T10:30:29Z</time>
      </trkpt>
      <trkpt lat="45.58033" lon="4.63115">
        <ele>346.95</ele>
        <time>2017-04-30T10:30:49Z</time>
      </trkpt>
      <trkpt lat="45.5804" lon="4.631">
        <ele>347.8</ele>
        <time>2017-04-30T10:31:01Z</time>
      </trkpt>
      <trkpt lat="45.58048" lon="4.63078">
        <ele>349.35</ele>
        <time>2017-04-30T10:31:17Z</time>
      </trkpt>
      <trkpt lat="45.5805" lon="4.6307">
        <ele>350.29</ele>
        <time>2017-04-30T10:31:23Z</time>
      </trkpt>
      <trkpt lat="45.58034" lon="4.63058">
        <ele>350.95</ele>
        <time>2017-04-30T10:31:42Z</time>
      </trkpt>
      <trkpt lat="45.58013" lon="4.63039">
        <ele>349.46</ele>
        <time>2017-04-30T10:32:02Z</time>
      </trkpt>
      <trkpt lat="45.58001" lon="4.63032">
        <ele>350.2</ele>
        <time>2017-04-30T10:32:13Z</time>
      </trkpt>
      <trkpt lat="45.57997" lon="4.63032">
        <ele>350.57</ele>
        <time>2017-04-30T10:32:17Z</time>
      </trkpt>
      <trkpt lat="45.57966" lon="4.63021">
        <ele>350.99</ele>
        <time>2017-04-30T10:32:43Z</time>
      </trkpt>
      <trkpt lat="45.57945" lon="4.63013">
        <ele>350.48</ele>
        <time>2017-04-30T10:33:02Z</time>
      </trkpt>
      <trkpt lat="45.57928" lon="4.63003">
        <ele>349.67</ele>
        <time>2017-04-30T10:33:20Z</time>
      </trkpt>
      <trkpt lat="45.57921" lon="4.62999">
        <ele>348.61</ele>
        <time>2017-04-30T10:33:29Z</time>
      </trkpt>
      <trkpt lat="45.57919" lon="4.62997">
        <ele>348.55</ele>
        <time>2017-04-30T10:33:31Z</time>
      </trkpt>
      <trkpt lat="45.57908" lon="4.62983">
        <ele>349.07</ele>
        <time>2017-04-30T10:33:45Z</time>
      </trkpt>
      <trkpt lat="45.57904" lon="4.62974">
        <ele>349.53</ele>
        <time>2017-04-30T10:33:51Z</time>
      </trkpt>
      <trkpt lat="45.57902" lon="4.6297">
        <ele>349.86</ele>
        <time>2017-04-30T10:33:55Z</time>
      </trkpt>
      <trkpt lat="45.57897" lon="4.62964">
        <ele>350.45</ele>
        <time>2017-04-30T10:34:00Z</time>
      </trkpt>
      <trkpt lat="45.57876" lon="4.62934">
        <ele>351.6</ele>
        <time>2017-04-30T10:34:22Z</time>
      </trkpt>
      <trkpt lat="45.57864" lon="4.62909">
        <ele>352.3</ele>
        <time>2017-04-30T10:34:40Z</time>
      </trkpt>
      <trkpt lat="45.57855" lon="4.62879">
        <ele>351.97</ele>
        <time>2017-04-30T10:35:00Z</time>
      </trkpt>
      <trkpt lat="45.57844" lon="4.62843">
        <ele>351.33</ele>
        <time>2017-04-30T10:35:22Z</time>
      </trkpt>
      <trkpt lat="45.57836" lon="4.6281">
        <ele>350.81</ele>
        <time>2017-04-30T10:35:42Z</time>
      </trkpt>
      <trkpt lat="45.57828" lon="4.62783">
        <ele>350.23</ele>
        <time>2017-04-30T10:36:01Z</time>
      </trkpt>
      <trkpt lat="45.57821" lon="4.6276">
        <ele>350.34</ele>
        <time>2017-04-30T10:36:17Z</time>
      </trkpt>
      <trkpt lat="45.57811" lon="4.6273">
        <ele>350.4</ele>
        <time>2017-04-30T10:36:35Z</time>
      </trkpt>
      <trkpt lat="45.57796" lon="4.627">
        <ele>350.82</ele>
        <time>2017-04-30T10:36:56Z</time>
      </trkpt>
      <trkpt lat="45.57784" lon="4.62668">
        <ele>351.54</ele>
        <time>2017-04-30T10:37:18Z</time>
      </trkpt>
      <trkpt lat="45.57774" lon="4.62637">
        <ele>354.45</ele>
        <time>2017-04-30T10:37:37Z</time>
      </trkpt>
      <trkpt lat="45.57764" lon="4.62603">
        <ele>355.78</ele>
        <time>2017-04-30T10:37:58Z</time>
      </trkpt>
      <trkpt lat="45.57759" lon="4.62557">
        <ele>356.13</ele>
        <time>2017-04-30T10:38:26Z</time>
      </trkpt>
      <trkpt lat="45.57758" lon="4.62517">
        <ele>356.18</ele>
        <time>2017-04-30T10:38:49Z</time>
      </trkpt>
      <trkpt lat="45.57757" lon="4.6248">
        <ele>354.78</ele>
        <time>2017-04-30T10:39:11Z</time>
      </trkpt>
      <trkpt lat="45.57763" lon="4.62438">
        <ele>354.28</ele>
        <time>2017-04-30T10:39:36Z</time>
      </trkpt>
      <trkpt lat="45.57772" lon="4.62412">
        <ele>355.76</ele>
        <time>2017-04-30T10:39:53Z</time>
      </trkpt>
      <trkpt lat="45.57785" lon="4.62377">
        <ele>354.02</ele>
        <time>2017-04-30T10:40:16Z</time>
      </trkpt>
      <trkpt lat="45.57805" lon="4.62353">
        <ele>354.4</ele>
        <time>2017-04-30T10:40:38Z</time>
      </trkpt>
      <trkpt lat="45.57828" lon="4.62339">
        <ele>354.59</ele>
        <time>2017-04-30T10:40:59Z</time>
      </trkpt>
      <trkpt lat="45.57832" lon="4.62338">
        <ele>354.54</ele>
        <time>2017-04-30T10:41:05Z</time>
      </trkpt>
      <trkpt lat="45.57838" lon="4.62336">
        <ele>354.56</ele>
        <time>2017-04-30T10:41:11Z</time>
      </trkpt>
      <trkpt lat="45.57869" lon="4.62328">
        <ele>353.37</ele>
        <time>2017-04-30T10:41:36Z</time>
      </trkpt>
      <trkpt lat="45.57893" lon="4.62322">
        <ele>355.07</ele>
        <time>2017-04-30T10:41:57Z</time>
      </trkpt>
      <trkpt lat="45.57916" lon="4.62316">
        <ele>355.66</ele>
        <time>2017-04-30T10:42:17Z</time>
      </trkpt>
      <trkpt lat="45.57939" lon="4.62314">
        <ele>357.39</ele>
        <time>2017-04-30T10:42:36Z</time>
      </trkpt>
      <trkpt lat="45.57964" lon="4.62309">
        <ele>358.4</ele>
        <time>2017-04-30T10:42:57Z</time>
      </trkpt>
      <trkpt lat="45.5799" lon="4.62303">
        <ele>357.69</ele>
        <time>2017-04-30T10:43:18Z</time>
      </trkpt>
      <trkpt lat="45.58017" lon="4.62299">
        <ele>359.27</ele>
        <time>2017-04-30T10:43:41Z</time>
      </trkpt>
      <trkpt lat="45.5804" lon="4.623">
        <ele>359.96</ele>
        <time>2017-04-30T10:44:00Z</time>
      </trkpt>
      <trkpt lat="45.58066" lon="4.62298">
        <ele>360.31</ele>
        <time>2017-04-30T10:44:21Z</time>
      </trkpt>
      <trkpt lat="45.58087" lon="4.62294">
        <ele>360.74</ele>
        <time>2017-04-30T10:44:39Z</time>
      </trkpt>
      <trkpt lat="45.58111" lon="4.62293">
        <ele>361.94</ele>
        <time>2017-04-30T10:44:59Z</time>
      </trkpt>
      <trkpt lat="45.58136" lon="4.6229">
        <ele>363.81</ele>
        <time>2017-04-30T10:45:19Z</time>
      </trkpt>
      <trkpt lat="45.58159" lon="4.62295">
        <ele>363.12</ele>
        <time>2017-04-30T10:45:39Z</time>
      </trkpt>
      <trkpt lat="45.58181" lon="4.62306">
        <ele>364.02</ele>
        <time>2017-04-30T10:45:58Z</time>
      </trkpt>
      <trkpt lat="45.58206" lon="4.6232">
        <ele>365.48</ele>
        <time>2017-04-30T10:46:20Z</time>
      </trkpt>
      <trkpt lat="45.58224" lon="4.62331">
        <ele>365.58</ele>
        <time>2017-04-30T10:46:37Z</time>
      </trkpt>
      <trkpt lat="45.58252" lon="4.62346">
        <ele>364.37</ele>
        <time>2017-04-30T10:47:00Z</time>
      </trkpt>
      <trkpt lat="45.58282" lon="4.62345">
        <ele>366.29</ele>
        <time>2017-04-30T10:47:25Z</time>
      </trkpt>
      <trkpt lat="45.58307" lon="4.62332">
        <ele>367.15</ele>
        <time>2017-04-30T10:47:46Z</time>
      </trkpt>
      <trkpt lat="45.5832" lon="4.62318">
        <ele>369.08</ele>
        <time>2017-04-30T10:48:02Z</time>
      </trkpt>
      <trkpt lat="45.58328" lon="4.62306">
        <ele>368.75</ele>
        <time>2017-04-30T10:48:15Z</time>
      </trkpt>
      <trkpt lat="45.58334" lon="4.62282">
        <ele>369.6</ele>
        <time>2017-04-30T10:48:28Z</time>
      </trkpt>
      <trkpt lat="45.58338" lon="4.62235">
        <ele>369.04</ele>
        <time>2017-04-30T10:48:50Z</time>
      </trkpt>
      <trkpt lat="45.58337" lon="4.62204">
        <ele>369.1</ele>
        <time>2017-04-30T10:49:08Z</time>
      </trkpt>
      <trkpt lat="45.58332" lon="4.62165">
        <ele>370.9</ele>
        <time>2017-04-30T10:49:31Z</time>
      </trkpt>
      <trkpt lat="45.58323" lon="4.62133">
        <ele>371.82</ele>
        <time>2017-04-30T10:49:51Z</time>
      </trkpt>
      <trkpt lat="45.58321" lon="4.621">
        <ele>371.72</ele>
        <time>2017-04-30T10:50:12Z</time>
      </trkpt>
      <trkpt lat="45.58325" lon="4.62064">
        <ele>372.21</ele>
        <time>2017-04-30T10:50:32Z</time>
      </trkpt>
      <trkpt lat="45.58331" lon="4.62027">
        <ele>373.75</ele>
        <time>2017-04-30T10:50:54Z</time>
      </trkpt>
      <trkpt lat="45.58338" lon="4.61981">
        <ele>374.01</ele>
        <time>2017-04-30T10:51:20Z</time>
      </trkpt>
      <trkpt lat="45.58345" lon="4.61943">
        <ele>374.58</ele>
        <time>2017-04-30T10:51:43Z</time>
      </trkpt>
      <trkpt lat="45.5835" lon="4.61905">
        <ele>374.72</ele>
        <time>2017-04-30T10:52:06Z</time>
      </trkpt>
      <trkpt lat="45.58358" lon="4.61872">
        <ele>375.49</ele>
        <time>2017-04-30T10:52:26Z</time>
      </trkpt>
      <trkpt lat="45.5837" lon="4.61842">
        <ele>375.6</ele>
        <time>2017-04-30T10:52:46Z</time>
      </trkpt>
      <trkpt lat="45.58387" lon="4.61812">
        <ele>376.11</ele>
        <time>2017-04-30T10:53:08Z</time>
      </trkpt>
      <trkpt lat="45.58404" lon="4.6179">
        <ele>376.21</ele>
        <time>2017-04-30T10:53:28Z</time>
      </trkpt>
      <trkpt lat="45.5842" lon="4.61769">
        <ele>376.68</ele>
        <time>2017-04-30T10:53:46Z</time>
      </trkpt>
      <trkpt lat="45.58439" lon="4.61747">
        <ele>377.07</ele>
        <time>2017-04-30T10:54:06Z</time>
      </trkpt>
      <trkpt lat="45.58464" lon="4.61726">
        <ele>378.98</ele>
        <time>2017-04-30T10:54:29Z</time>
      </trkpt>
      <trkpt lat="45.58489" lon="4.61702">
        <ele>380.82</ele>
        <time>2017-04-30T10:54:53Z</time>
      </trkpt>
      <trkpt lat="45.58507" lon="4.6168">
        <ele>380.72</ele>
        <time>2017-04-30T10:55:14Z</time>
      </trkpt>
      <trkpt lat="45.58513" lon="4.61675">
        <ele>380.99</ele>
        <time>2017-04-30T10:55:31Z</time>
      </trkpt>
      <trkpt lat="45.58513" lon="4.61676">
        <ele>379.26</ele>
        <time>2017-04-30T10:55:51Z</time>
      </trkpt>
      <trkpt lat="45.58528" lon="4.61635">
        <ele>380.92</ele>
        <time>2017-04-30T10:56:48Z</time>
      </trkpt>
      <trkpt lat="45.5853" lon="4.6163">
        <ele>380.93</ele>
        <time>2017-04-30T10:56:51Z</time>
      </trkpt>
      <trkpt lat="45.58534" lon="4.61599">
        <ele>380.16</ele>
        <time>2017-04-30T10:57:10Z</time>
      </trkpt>
      <trkpt lat="45.58538" lon="4.61556">
        <ele>380.61</ele>
        <time>2017-04-30T10:57:34Z</time>
      </trkpt>
      <trkpt lat="45.58541" lon="4.6152">
        <ele>380.92</ele>
        <time>2017-04-30T10:57:55Z</time>
      </trkpt>
      <trkpt lat="45.58544" lon="4.61479">
        <ele>381.2</ele>
        <time>2017-04-30T10:58:18Z</time>
      </trkpt>
      <trkpt lat="45.58541" lon="4.61438">
        <ele>380.28</ele>
        <time>2017-04-30T10:58:42Z</time>
      </trkpt>
      <trkpt lat="45.58533" lon="4.61397">
        <ele>380.66</ele>
        <time>2017-04-30T10:59:07Z</time>
      </trkpt>
      <trkpt lat="45.58525" lon="4.6136">
        <ele>380.59</ele>
        <time>2017-04-30T10:59:30Z</time>
      </trkpt>
      <trkpt lat="45.58517" lon="4.61323">
        <ele>381.97</ele>
        <time>2017-04-30T10:59:52Z</time>
      </trkpt>
      <trkpt lat="45.5851" lon="4.61294">
        <ele>383.28</ele>
        <time>2017-04-30T11:00:09Z</time>
      </trkpt>
      <trkpt lat="45.58505" lon="4.61253">
        <ele>381.56</ele>
        <time>2017-04-30T11:00:32Z</time>
      </trkpt>
      <trkpt lat="45.5851" lon="4.61211">
        <ele>381.18</ele>
        <time>2017-04-30T11:00:57Z</time>
      </trkpt>
      <trkpt lat="45.58525" lon="4.61174">
        <ele>380.64</ele>
        <time>2017-04-30T11:01:22Z</time>
      </trkpt>
      <trkpt lat="45.58544" lon="4.61144">
        <ele>381.04</ele>
        <time>2017-04-30T11:01:45Z</time>
      </trkpt>
      <trkpt lat="45.58567" lon="4.61122">
        <ele>381.58</ele>
        <time>2017-04-30T11:02:08Z</time>
      </trkpt>
      <trkpt lat="45.58595" lon="4.6111">
        <ele>380.86</ele>
        <time>2017-04-30T11:02:32Z</time>
      </trkpt>
      <trkpt lat="45.58626" lon="4.61101">
        <ele>378.78</ele>
        <time>2017-04-30T11:02:58Z</time>
      </trkpt>
      <trkpt lat="45.58655" lon="4.61091">
        <ele>378.54</ele>
        <time>2017-04-30T11:03:22Z</time>
      </trkpt>
      <trkpt lat="45.58681" lon="4.61082">
        <ele>377.62</ele>
        <time>2017-04-30T11:03:44Z</time>
      </trkpt>
      <trkpt lat="45.58704" lon="4.61075">
        <ele>377.23</ele>
        <time>2017-04-30T11:04:05Z</time>
      </trkpt>
      <trkpt lat="45.58704" lon="4.61075">
        <ele>377.85</ele>
        <time>2017-04-30T11:04:29Z</time>
      </trkpt>
      <trkpt lat="45.58706" lon="4.61074">
        <ele>377.72</ele>
        <time>2017-04-30T11:04:36Z</time>
      </trkpt>
      <trkpt lat="45.58709" lon="4.61072">
        <ele>377.57</ele>
        <time>2017-04-30T11:04:38Z</time>
      </trkpt>
      <trkpt lat="45.58734" lon="4.61063">
        <ele>376.43</ele>
        <time>2017-04-30T11:05:00Z</time>
      </trkpt>
      <trkpt lat="45.58761" lon="4.61057">
        <ele>377.59</ele>
        <time>2017-04-30T11:05:22Z</time>
      </trkpt>
      <trkpt lat="45.58781" lon="4.61053">
        <ele>378.3</ele>
        <time>2017-04-30T11:05:39Z</time>
      </trkpt>
      <trkpt lat="45.58799" lon="4.61056">
        <ele>376.77</ele>
        <time>2017-04-30T11:05:55Z</time>
      </trkpt>
      <trkpt lat="45.58816" lon="4.61068">
        <ele>375.06</ele>
        <time>2017-04-30T11:06:10Z</time>
      </trkpt>
      <trkpt lat="45.58833" lon="4.61091">
        <ele>375.11</ele>
        <time>2017-04-30T11:06:30Z</time>
      </trkpt>
      <trkpt lat="45.58845" lon="4.61117">
        <ele>373.68</ele>
        <time>2017-04-30T11:06:48Z</time>
      </trkpt>
      <trkpt lat="45.58854" lon="4.61142">
        <ele>374.1</ele>
        <time>2017-04-30T11:07:04Z</time>
      </trkpt>
      <trkpt lat="45.58863" lon="4.61156">
        <ele>373.12</ele>
        <time>2017-04-30T11:07:14Z</time>
      </trkpt>
      <trkpt lat="45.58867" lon="4.61162">
        <ele>372.82</ele>
        <time>2017-04-30T11:07:19Z</time>
      </trkpt>
      <trkpt lat="45.58884" lon="4.61177">
        <ele>372.47</ele>
        <time>2017-04-30T11:07:36Z</time>
      </trkpt>
      <trkpt lat="45.589" lon="4.61186">
        <ele>371.92</ele>
        <time>2017-04-30T11:07:51Z</time>
      </trkpt>
      <trkpt lat="45.58922" lon="4.61187">
        <ele>373.6</ele>
        <time>2017-04-30T11:08:09Z</time>
      </trkpt>
      <trkpt lat="45.5895" lon="4.61175">
        <ele>373.61</ele>
        <time>2017-04-30T11:08:32Z</time>
      </trkpt>
      <trkpt lat="45.58973" lon="4.61155">
        <ele>372.29</ele>
        <time>2017-04-30T11:08:54Z</time>
      </trkpt>
      <trkpt lat="45.58992" lon="4.61135">
        <ele>373.08</ele>
        <time>2017-04-30T11:09:13Z</time>
      </trkpt>
      <trkpt lat="45.59014" lon="4.61112">
        <ele>373.07</ele>
        <time>2017-04-30T11:09:36Z</time>
      </trkpt>
      <trkpt lat="45.59036" lon="4.61087">
        <ele>374.09</ele>
        <time>2017-04-30T11:09:58Z</time>
      </trkpt>
      <trkpt lat="45.59058" lon="4.61067">
        <ele>373.77</ele>
        <time>2017-04-30T11:10:19Z</time>
      </trkpt>
      <trkpt lat="45.59081" lon="4.61043">
        <ele>374.01</ele>
        <time>2017-04-30T11:10:42Z</time>
      </trkpt>
      <trkpt lat="45.59102" lon="4.61018">
        <ele>374.02</ele>
        <time>2017-04-30T11:11:04Z</time>
      </trkpt>
      <trkpt lat="45.59121" lon="4.61004">
        <ele>374.78</ele>
        <time>2017-04-30T11:11:22Z</time>
      </trkpt>
      <trkpt lat="45.59147" lon="4.60995">
        <ele>377.04</ele>
        <time>2017-04-30T11:11:44Z</time>
      </trkpt>
      <trkpt lat="45.59174" lon="4.60994">
        <ele>374.87</ele>
        <time>2017-04-30T11:12:07Z</time>
      </trkpt>
      <trkpt lat="45.592" lon="4.60994">
        <ele>373.83</ele>
        <time>2017-04-30T11:12:28Z</time>
      </trkpt>
      <trkpt lat="45.59203" lon="4.60993">
        <ele>374.46</ele>
        <time>2017-04-30T11:12:33Z</time>
      </trkpt>
      <trkpt lat="45.59227" lon="4.60975">
        <ele>375.73</ele>
        <time>2017-04-30T11:12:56Z</time>
      </trkpt>
      <trkpt lat="45.59244" lon="4.6096">
        <ele>375.91</ele>
        <time>2017-04-30T11:13:15Z</time>
      </trkpt>
      <trkpt lat="45.59252" lon="4.60951">
        <ele>377.37</ele>
        <time>2017-04-30T11:13:28Z</time>
      </trkpt>
      <trkpt lat="45.59263" lon="4.6095">
        <ele>377.14</ele>
        <time>2017-04-30T11:13:43Z</time>
      </trkpt>
      <trkpt lat="45.59264" lon="4.60951">
        <ele>376.86</ele>
        <time>2017-04-30T11:13:59Z</time>
      </trkpt>
      <trkpt lat="45.59266" lon="4.60951">
        <ele>375.84</ele>
        <time>2017-04-30T11:14:16Z</time>
      </trkpt>
      <trkpt lat="45.59312" lon="4.60917">
        <ele>378.77</ele>
        <time>2017-04-30T11:20:29Z</time>
      </trkpt>
      <trkpt lat="45.59331" lon="4.60904">
        <ele>379.36</ele>
        <time>2017-04-30T11:20:47Z</time>
      </trkpt>
      <trkpt lat="45.59356" lon="4.60886">
        <ele>378.8</ele>
        <time>2017-04-30T11:21:12Z</time>
      </trkpt>
      <trkpt lat="45.59377" lon="4.6088">
        <ele>378.89</ele>
        <time>2017-04-30T11:21:32Z</time>
      </trkpt>
      <trkpt lat="45.59401" lon="4.60867">
        <ele>378.32</ele>
        <time>2017-04-30T11:21:54Z</time>
      </trkpt>
      <trkpt lat="45.59418" lon="4.6084">
        <ele>377.17</ele>
        <time>2017-04-30T11:22:16Z</time>
      </trkpt>
      <trkpt lat="45.59422" lon="4.60824">
        <ele>377.03</ele>
        <time>2017-04-30T11:22:27Z</time>
      </trkpt>
      <trkpt lat="45.59424" lon="4.60832">
        <ele>377.24</ele>
        <time>2017-04-30T11:22:40Z</time>
      </trkpt>
      <trkpt lat="45.59422" lon="4.6085">
        <ele>378.08</ele>
        <time>2017-04-30T11:22:57Z</time>
      </trkpt>
      <trkpt lat="45.59418" lon="4.60864">
        <ele>381.14</ele>
        <time>2017-04-30T11:23:14Z</time>
      </trkpt>
      <trkpt lat="45.59419" lon="4.60875">
        <ele>383.79</ele>
        <time>2017-04-30T11:23:35Z</time>
      </trkpt>
      <trkpt lat="45.59429" lon="4.60866">
        <ele>386.81</ele>
        <time>2017-04-30T11:23:51Z</time>
      </trkpt>
      <trkpt lat="45.59442" lon="4.60852">
        <ele>387.92</ele>
        <time>2017-04-30T11:24:07Z</time>
      </trkpt>
      <trkpt lat="45.59452" lon="4.60835">
        <ele>388.96</ele>
        <time>2017-04-30T11:24:24Z</time>
      </trkpt>
      <trkpt lat="45.59463" lon="4.60816">
        <ele>390.23</ele>
        <time>2017-04-30T11:24:41Z</time>
      </trkpt>
      <trkpt lat="45.59465" lon="4.60821">
        <ele>392.4</ele>
        <time>2017-04-30T11:24:54Z</time>
      </trkpt>
      <trkpt lat="45.59462" lon="4.6084">
        <ele>395.57</ele>
        <time>2017-04-30T11:25:11Z</time>
      </trkpt>
      <trkpt lat="45.5946" lon="4.60857">
        <ele>398.57</ele>
        <time>2017-04-30T11:25:28Z</time>
      </trkpt>
      <trkpt lat="45.5946" lon="4.60866">
        <ele>401.78</ele>
        <time>2017-04-30T11:25:40Z</time>
      </trkpt>
      <trkpt lat="45.59466" lon="4.60879">
        <ele>404.73</ele>
        <time>2017-04-30T11:25:57Z</time>
      </trkpt>
      <trkpt lat="45.59472" lon="4.60886">
        <ele>405.61</ele>
        <time>2017-04-30T11:26:07Z</time>
      </trkpt>
      <trkpt lat="45.5948" lon="4.60896">
        <ele>406.09</ele>
        <time>2017-04-30T11:26:22Z</time>
      </trkpt>
      <trkpt lat="45.59484" lon="4.60902">
        <ele>405.79</ele>
        <time>2017-04-30T11:26:27Z</time>
      </trkpt>
      <trkpt lat="45.59484" lon="4.6093">
        <ele>404.8</ele>
        <time>2017-04-30T11:26:46Z</time>
      </trkpt>
      <trkpt lat="45.59492" lon="4.60948">
        <ele>405.79</ele>
        <time>2017-04-30T11:27:03Z</time>
      </trkpt>
      <trkpt lat="45.59496" lon="4.60954">
        <ele>405.63</ele>
        <time>2017-04-30T11:27:09Z</time>
      </trkpt>
      <trkpt lat="45.595" lon="4.60962">
        <ele>405.73</ele>
        <time>2017-04-30T11:27:17Z</time>
      </trkpt>
      <trkpt lat="45.59516" lon="4.60972">
        <ele>406.59</ele>
        <time>2017-04-30T11:27:34Z</time>
      </trkpt>
      <trkpt lat="45.5952" lon="4.60974">
        <ele>407.73</ele>
        <time>2017-04-30T11:27:38Z</time>
      </trkpt>
      <trkpt lat="45.5953" lon="4.60981">
        <ele>409.59</ele>
        <time>2017-04-30T11:27:48Z</time>
      </trkpt>
      <trkpt lat="45.59546" lon="4.60985">
        <ele>412.73</ele>
        <time>2017-04-30T11:28:03Z</time>
      </trkpt>
      <trkpt lat="45.59557" lon="4.60986">
        <ele>412.73</ele>
        <time>2017-04-30T11:28:17Z</time>
      </trkpt>
      <trkpt lat="45.59557" lon="4.60971">
        <ele>415.1</ele>
        <time>2017-04-30T11:28:32Z</time>
      </trkpt>
      <trkpt lat="45.59555" lon="4.60967">
        <ele>415.8</ele>
        <time>2017-04-30T11:28:36Z</time>
      </trkpt>
      <trkpt lat="45.5955" lon="4.60946">
        <ele>417.52</ele>
        <time>2017-04-30T11:28:53Z</time>
      </trkpt>
      <trkpt lat="45.59551" lon="4.60938">
        <ele>417.73</ele>
        <time>2017-04-30T11:28:59Z</time>
      </trkpt>
      <trkpt lat="45.59555" lon="4.60925">
        <ele>419.31</ele>
        <time>2017-04-30T11:29:16Z</time>
      </trkpt>
      <trkpt lat="45.59565" lon="4.60903">
        <ele>421.7</ele>
        <time>2017-04-30T11:29:36Z</time>
      </trkpt>
      <trkpt lat="45.5956" lon="4.60883">
        <ele>422.36</ele>
        <time>2017-04-30T11:29:51Z</time>
      </trkpt>
      <trkpt lat="45.59557" lon="4.60876">
        <ele>422.29</ele>
        <time>2017-04-30T11:29:56Z</time>
      </trkpt>
      <trkpt lat="45.59554" lon="4.60856">
        <ele>421.14</ele>
        <time>2017-04-30T11:30:12Z</time>
      </trkpt>
      <trkpt lat="45.59558" lon="4.60836">
        <ele>420.6</ele>
        <time>2017-04-30T11:30:28Z</time>
      </trkpt>
      <trkpt lat="45.59568" lon="4.60824">
        <ele>420.92</ele>
        <time>2017-04-30T11:30:45Z</time>
      </trkpt>
      <trkpt lat="45.59576" lon="4.60817">
        <ele>422.22</ele>
        <time>2017-04-30T11:30:55Z</time>
      </trkpt>
      <trkpt lat="45.59592" lon="4.60802">
        <ele>425.03</ele>
        <time>2017-04-30T11:31:15Z</time>
      </trkpt>
      <trkpt lat="45.59614" lon="4.60794">
        <ele>424.64</ele>
        <time>2017-04-30T11:31:36Z</time>
      </trkpt>
      <trkpt lat="45.59623" lon="4.60789">
        <ele>424.78</ele>
        <time>2017-04-30T11:31:46Z</time>
      </trkpt>
      <trkpt lat="45.59636" lon="4.60785">
        <ele>424.91</ele>
        <time>2017-04-30T11:31:57Z</time>
      </trkpt>
      <trkpt lat="45.59639" lon="4.60783">
        <ele>424.89</ele>
        <time>2017-04-30T11:31:59Z</time>
      </trkpt>
      <trkpt lat="45.59652" lon="4.60765">
        <ele>424.19</ele>
        <time>2017-04-30T11:32:16Z</time>
      </trkpt>
      <trkpt lat="45.59671" lon="4.6075">
        <ele>424.7</ele>
        <time>2017-04-30T11:32:36Z</time>
      </trkpt>
      <trkpt lat="45.59689" lon="4.60744">
        <ele>423.98</ele>
        <time>2017-04-30T11:32:54Z</time>
      </trkpt>
      <trkpt lat="45.597" lon="4.6073">
        <ele>425.52</ele>
        <time>2017-04-30T11:33:08Z</time>
      </trkpt>
      <trkpt lat="45.59713" lon="4.60715">
        <ele>426.08</ele>
        <time>2017-04-30T11:33:22Z</time>
      </trkpt>
      <trkpt lat="45.59731" lon="4.60704">
        <ele>426.11</ele>
        <time>2017-04-30T11:33:40Z</time>
      </trkpt>
      <trkpt lat="45.59748" lon="4.60692">
        <ele>426.37</ele>
        <time>2017-04-30T11:34:00Z</time>
      </trkpt>
      <trkpt lat="45.59764" lon="4.60681">
        <ele>427.34</ele>
        <time>2017-04-30T11:34:19Z</time>
      </trkpt>
      <trkpt lat="45.59766" lon="4.60679">
        <ele>427.45</ele>
        <time>2017-04-30T11:34:25Z</time>
      </trkpt>
      <trkpt lat="45.59768" lon="4.60678">
        <ele>427.33</ele>
        <time>2017-04-30T11:34:27Z</time>
      </trkpt>
      <trkpt lat="45.5979" lon="4.60662">
        <ele>427.98</ele>
        <time>2017-04-30T11:34:49Z</time>
      </trkpt>
      <trkpt lat="45.59808" lon="4.60653">
        <ele>428.42</ele>
        <time>2017-04-30T11:35:05Z</time>
      </trkpt>
      <trkpt lat="45.59821" lon="4.60647">
        <ele>429.2</ele>
        <time>2017-04-30T11:35:18Z</time>
      </trkpt>
      <trkpt lat="45.59839" lon="4.60645">
        <ele>430.1</ele>
        <time>2017-04-30T11:35:37Z</time>
      </trkpt>
      <trkpt lat="45.59842" lon="4.60644">
        <ele>430.18</ele>
        <time>2017-04-30T11:35:41Z</time>
      </trkpt>
      <trkpt lat="45.59852" lon="4.60637">
        <ele>430.19</ele>
        <time>2017-04-30T11:35:50Z</time>
      </trkpt>
      <trkpt lat="45.59864" lon="4.60612">
        <ele>431.28</ele>
        <time>2017-04-30T11:36:09Z</time>
      </trkpt>
      <trkpt lat="45.5988" lon="4.6059">
        <ele>431.79</ele>
        <time>2017-04-30T11:36:28Z</time>
      </trkpt>
      <trkpt lat="45.59897" lon="4.60562">
        <ele>432.49</ele>
        <time>2017-04-30T11:36:51Z</time>
      </trkpt>
      <trkpt lat="45.59913" lon="4.60543">
        <ele>433.06</ele>
        <time>2017-04-30T11:37:10Z</time>
      </trkpt>
      <trkpt lat="45.59929" lon="4.60523">
        <ele>434.3</ele>
        <time>2017-04-30T11:37:29Z</time>
      </trkpt>
      <trkpt lat="45.59942" lon="4.60524">
        <ele>432.91</ele>
        <time>2017-04-30T11:37:46Z</time>
      </trkpt>
      <trkpt lat="45.59949" lon="4.60532">
        <ele>432.8</ele>
        <time>2017-04-30T11:37:56Z</time>
      </trkpt>
      <trkpt lat="45.59955" lon="4.60534">
        <ele>432.43</ele>
        <time>2017-04-30T11:38:01Z</time>
      </trkpt>
    </trkseg>
  </trk>
</gpx>